^^
B2 Weather Station Historical Data
Daily Summary for January 03, 2018 Units:  Both    English   Metric
Daily Weekly Monthly Yearly Custom
  High: Low: Average:
Temperature: 17.0 °F /  -8.3 °C 1.4 °F /  -17 °C 10.7 °F /  -11.8 °C
Dew Point: 13.6 °F /  -10.2 °C -3.9 °F /  -19.9 °C 5.5 °F /  -14.7 °C
Humidity: 88% 72% 79%
Wind Speed: 17.3mph /  27.8km/h - 9.3mph /  15km/h
Wind Gust: 17.3mph /  27.8km/h - -
Wind- - West
Pressure: 30.27 in /  1024.9 hPa 30.05 in /  1017.5 hPa -
Precipitation: 0.04 in /  1.02 mm    
Historical Graphs
 
 
Tabular Data for January 03, 2018
Time Temperature Dew Point Pressure Wind Wind Speed Wind Gust Humidity Rainfall Rate (Hourly) solar
00:01 5.7 °F /  -14.6 °C -0.2 °F /  -17.9 °C 30.19in /  1022.2hPa SSW 6.9mph /  11.1km/h 6.9mph /  11.1km/h 76% 0.00in /  0mm 0.0 W/m2
00:07 5.8 °F /  -14.6 °C -0.1 °F /  -17.8 °C 30.19in /  1022.2hPa SSW 6.9mph /  11.1km/h 6.9mph /  11.1km/h 76% 0.00in /  0mm 0.0 W/m2
00:08 5.8 °F /  -14.6 °C -0.1 °F /  -17.8 °C 30.19in /  1022.2hPa SSW 8.1mph /  13km/h 8.1mph /  13km/h 76% 0.00in /  0mm 0.0 W/m2
00:13 5.9 °F /  -14.5 °C 0.0 °F /  -17.8 °C 30.18in /  1021.9hPa WSW 9.2mph /  14.8km/h 9.2mph /  14.8km/h 76% 0.00in /  0mm 0.0 W/m2
00:16 5.9 °F /  -14.5 °C 0.0 °F /  -17.8 °C 30.18in /  1021.9hPa SSW 5.8mph /  9.3km/h 5.8mph /  9.3km/h 76% 0.00in /  0mm 0.0 W/m2
00:21 6.0 °F /  -14.4 °C 0.1 °F /  -17.7 °C 30.18in /  1021.9hPa SSW 6.9mph /  11.1km/h 6.9mph /  11.1km/h 76% 0.00in /  0mm 0.0 W/m2
00:22 6.0 °F /  -14.4 °C 0.1 °F /  -17.7 °C 30.18in /  1021.9hPa SSW 12.0mph /  19.3km/h 12.0mph /  19.3km/h 76% 0.00in /  0mm 0.0 W/m2
00:25 6.1 °F /  -14.4 °C 0.2 °F /  -17.7 °C 30.18in /  1021.9hPa SW 6.9mph /  11.1km/h 6.9mph /  11.1km/h 76% 0.00in /  0mm 0.0 W/m2
00:28 6.1 °F /  -14.4 °C 0.2 °F /  -17.7 °C 30.17in /  1021.6hPa SW 10.4mph /  16.7km/h 10.4mph /  16.7km/h 76% 0.00in /  0mm 0.0 W/m2
00:33 6.3 °F /  -14.3 °C 0.3 °F /  -17.6 °C 30.17in /  1021.6hPa SSW 11.5mph /  18.5km/h 11.5mph /  18.5km/h 76% 0.00in /  0mm 0.0 W/m2
00:38 6.5 °F /  -14.2 °C 0.5 °F /  -17.5 °C 30.17in /  1021.6hPa SSW 11.5mph /  18.5km/h 11.5mph /  18.5km/h 76% 0.00in /  0mm 0.0 W/m2
00:42 6.6 °F /  -14.1 °C 0.6 °F /  -17.4 °C 30.17in /  1021.6hPa SSW 11.5mph /  18.5km/h 11.5mph /  18.5km/h 76% 0.00in /  0mm 0.0 W/m2
00:44 6.7 °F /  -14.1 °C 0.7 °F /  -17.4 °C 30.17in /  1021.6hPa SSW 12.0mph /  19.3km/h 12.0mph /  19.3km/h 76% 0.00in /  0mm 0.0 W/m2
00:49 6.9 °F /  -13.9 °C 0.9 °F /  -17.3 °C 30.16in /  1021.2hPa SSW 6.9mph /  11.1km/h 6.9mph /  11.1km/h 76% 0.00in /  0mm 0.0 W/m2
00:50 6.9 °F /  -13.9 °C 0.9 °F /  -17.3 °C 30.16in /  1021.2hPa SW 10.4mph /  16.7km/h 10.4mph /  16.7km/h 76% 0.00in /  0mm 0.0 W/m2
00:55 7.1 °F /  -13.8 °C 1.1 °F /  -17.2 °C 30.16in /  1021.2hPa SW 11.5mph /  18.5km/h 11.5mph /  18.5km/h 76% 0.00in /  0mm 0.0 W/m2
00:56 7.2 °F /  -13.8 °C 1.2 °F /  -17.1 °C 30.16in /  1021.2hPa SW 11.5mph /  18.5km/h 11.5mph /  18.5km/h 76% 0.00in /  0mm 0.0 W/m2
00:57 7.1 °F /  -13.8 °C 0.8 °F /  -17.3 °C 30.16in /  1021.2hPa SSW 9.2mph /  14.8km/h 9.2mph /  14.8km/h 75% 0.00in /  0mm 0.0 W/m2
01:01 7.3 °F /  -13.7 °C 1.0 °F /  -17.2 °C 30.16in /  1021.2hPa SW 11.5mph /  18.5km/h 11.5mph /  18.5km/h 75% 0.00in /  0mm 0.0 W/m2
01:04 7.3 °F /  -13.7 °C 1.0 °F /  -17.2 °C 30.16in /  1021.2hPa SSW 11.5mph /  18.5km/h 11.5mph /  18.5km/h 75% 0.00in /  0mm 0.0 W/m2
01:06 7.4 °F /  -13.7 °C 1.1 °F /  -17.2 °C 30.15in /  1020.9hPa SSW 11.5mph /  18.5km/h 11.5mph /  18.5km/h 75% 0.00in /  0mm 0.0 W/m2
01:10 7.6 °F /  -13.6 °C 1.3 °F /  -17.1 °C 30.15in /  1020.9hPa SSW 11.5mph /  18.5km/h 11.5mph /  18.5km/h 75% 0.00in /  0mm 0.0 W/m2
01:12 7.6 °F /  -13.6 °C 1.3 °F /  -17.1 °C 30.15in /  1020.9hPa SSW 11.5mph /  18.5km/h 11.5mph /  18.5km/h 75% 0.00in /  0mm 0.0 W/m2
01:15 7.7 °F /  -13.5 °C 1.4 °F /  -17 °C 30.14in /  1020.5hPa SW 11.5mph /  18.5km/h 11.5mph /  18.5km/h 75% 0.00in /  0mm 0.0 W/m2
01:18 7.9 °F /  -13.4 °C 1.6 °F /  -16.9 °C 30.14in /  1020.5hPa South 9.2mph /  14.8km/h 9.2mph /  14.8km/h 75% 0.00in /  0mm 0.0 W/m2
01:22 8.0 °F /  -13.3 °C 1.7 °F /  -16.8 °C 30.14in /  1020.5hPa SSW 11.5mph /  18.5km/h 11.5mph /  18.5km/h 75% 0.00in /  0mm 0.0 W/m2
01:24 8.1 °F /  -13.3 °C 1.8 °F /  -16.8 °C 30.14in /  1020.5hPa South 11.5mph /  18.5km/h 11.5mph /  18.5km/h 75% 0.00in /  0mm 0.0 W/m2
01:29 8.2 °F /  -13.2 °C 1.9 °F /  -16.7 °C 30.14in /  1020.5hPa SSW 9.2mph /  14.8km/h 9.2mph /  14.8km/h 75% 0.00in /  0mm 0.0 W/m2
01:31 8.3 °F /  -13.2 °C 2.0 °F /  -16.7 °C 30.14in /  1020.5hPa SSW 12.7mph /  20.4km/h 12.7mph /  20.4km/h 75% 0.00in /  0mm 0.0 W/m2
01:32 8.3 °F /  -13.2 °C 2.0 °F /  -16.7 °C 30.14in /  1020.5hPa North 12.7mph /  20.4km/h 12.7mph /  20.4km/h 75% 0.00in /  0mm 0.0 W/m2
01:37 8.4 °F /  -13.1 °C 1.8 °F /  -16.8 °C 30.14in /  1020.5hPa SSW 11.5mph /  18.5km/h 11.5mph /  18.5km/h 74% 0.00in /  0mm 0.0 W/m2
01:42 8.5 °F /  -13.1 °C 1.9 °F /  -16.7 °C 30.14in /  1020.5hPa SSW 16.1mph /  25.9km/h 16.1mph /  25.9km/h 74% 0.00in /  0mm 0.0 W/m2
01:45 8.6 °F /  -13 °C 2.0 °F /  -16.7 °C 30.14in /  1020.5hPa SSW 8.1mph /  13km/h 8.1mph /  13km/h 74% 0.00in /  0mm 0.0 W/m2
01:48 8.6 °F /  -13 °C 2.0 °F /  -16.7 °C 30.14in /  1020.5hPa SSW 11.5mph /  18.5km/h 11.5mph /  18.5km/h 74% 0.00in /  0mm 0.0 W/m2
01:50 8.6 °F /  -13 °C 2.0 °F /  -16.7 °C 30.14in /  1020.5hPa WSW 11.0mph /  17.7km/h 11.0mph /  17.7km/h 74% 0.00in /  0mm 0.0 W/m2
01:59 8.9 °F /  -12.8 °C 2.3 °F /  -16.5 °C 30.13in /  1020.2hPa SSW 10.4mph /  16.7km/h 10.4mph /  16.7km/h 74% 0.00in /  0mm 0.0 W/m2
02:04 8.9 °F /  -12.8 °C 2.3 °F /  -16.5 °C 30.13in /  1020.2hPa SW 11.5mph /  18.5km/h 11.5mph /  18.5km/h 74% 0.00in /  0mm 0.0 W/m2
02:05 8.9 °F /  -12.8 °C 2.3 °F /  -16.5 °C 30.13in /  1020.2hPa SW 9.2mph /  14.8km/h 9.2mph /  14.8km/h 74% 0.00in /  0mm 0.0 W/m2
02:10 8.9 °F /  -12.8 °C 2.3 °F /  -16.5 °C 30.13in /  1020.2hPa SW 6.9mph /  11.1km/h 6.9mph /  11.1km/h 74% 0.00in /  0mm 0.0 W/m2
02:11 9.0 °F /  -12.8 °C 2.4 °F /  -16.4 °C 30.13in /  1020.2hPa SSW 6.9mph /  11.1km/h 6.9mph /  11.1km/h 74% 0.00in /  0mm 0.0 W/m2
02:16 9.0 °F /  -12.8 °C 2.7 °F /  -16.3 °C 30.13in /  1020.2hPa SSW 5.8mph /  9.3km/h 5.8mph /  9.3km/h 75% 0.00in /  0mm 0.0 W/m2
02:18 9.1 °F /  -12.7 °C 2.8 °F /  -16.2 °C 30.13in /  1020.2hPa SSW 11.5mph /  18.5km/h 11.5mph /  18.5km/h 75% 0.00in /  0mm 0.0 W/m2
02:23 9.2 °F /  -12.7 °C 2.9 °F /  -16.2 °C 30.12in /  1019.9hPa SSW 11.5mph /  18.5km/h 11.5mph /  18.5km/h 75% 0.00in /  0mm 0.0 W/m2
02:30 9.3 °F /  -12.6 °C 3.0 °F /  -16.1 °C 30.12in /  1019.9hPa SW 8.1mph /  13km/h 8.1mph /  13km/h 75% 0.00in /  0mm 0.0 W/m2
02:33 9.3 °F /  -12.6 °C 3.0 °F /  -16.1 °C 30.12in /  1019.9hPa SSW 8.1mph /  13km/h 8.1mph /  13km/h 75% 0.00in /  0mm 0.0 W/m2
02:35 9.4 °F /  -12.6 °C 3.4 °F /  -15.9 °C 30.12in /  1019.9hPa South 11.5mph /  18.5km/h 11.5mph /  18.5km/h 76% 0.00in /  0mm 0.0 W/m2
02:40 9.5 °F /  -12.5 °C 3.2 °F /  -16 °C 30.12in /  1019.9hPa SSW 10.4mph /  16.7km/h 10.4mph /  16.7km/h 75% 0.00in /  0mm 0.0 W/m2
02:45 9.7 °F /  -12.4 °C 3.4 °F /  -15.9 °C 30.12in /  1019.9hPa SSW 5.0mph /  8km/h 5.0mph /  8km/h 75% 0.00in /  0mm 0.0 W/m2
02:46 9.7 °F /  -12.4 °C 3.4 °F /  -15.9 °C 30.12in /  1019.9hPa SSW 3.0mph /  4.8km/h 3.0mph /  4.8km/h 75% 0.00in /  0mm 0.0 W/m2
02:47 9.7 °F /  -12.4 °C 3.4 °F /  -15.9 °C 30.12in /  1019.9hPa SSW 8.1mph /  13km/h 8.1mph /  13km/h 75% 0.00in /  0mm 0.0 W/m2
02:51 9.8 °F /  -12.3 °C 3.7 °F /  -15.7 °C 30.11in /  1019.5hPa SSW 6.9mph /  11.1km/h 6.9mph /  11.1km/h 76% 0.00in /  0mm 0.0 W/m2
02:56 10.0 °F /  -12.2 °C 3.9 °F /  -15.6 °C 30.11in /  1019.5hPa South 3.0mph /  4.8km/h 3.0mph /  4.8km/h 76% 0.00in /  0mm 0.0 W/m2
02:58 10.1 °F /  -12.2 °C 4.0 °F /  -15.6 °C 30.11in /  1019.5hPa South 9.2mph /  14.8km/h 9.2mph /  14.8km/h 76% 0.00in /  0mm 0.0 W/m2
03:00 10.2 °F /  -12.1 °C 3.8 °F /  -15.7 °C 30.11in /  1019.5hPa SSW 8.1mph /  13km/h 8.1mph /  13km/h 75% 0.00in /  0mm 0.0 W/m2
03:04 10.5 °F /  -11.9 °C 4.1 °F /  -15.5 °C 30.11in /  1019.5hPa SW 10.4mph /  16.7km/h 10.4mph /  16.7km/h 75% 0.00in /  0mm 0.0 W/m2
03:06 10.5 °F /  -11.9 °C 4.1 °F /  -15.5 °C 30.11in /  1019.5hPa SSW 10.4mph /  16.7km/h 10.4mph /  16.7km/h 75% 0.00in /  0mm 0.0 W/m2
03:09 10.7 °F /  -11.8 °C 4.3 °F /  -15.4 °C 30.11in /  1019.5hPa South 6.9mph /  11.1km/h 6.9mph /  11.1km/h 75% 0.00in /  0mm 0.0 W/m2
03:11 10.8 °F /  -11.8 °C 4.4 °F /  -15.3 °C 30.11in /  1019.5hPa Calm     75% 0.00in /  0mm 0.0 W/m2
03:16 10.8 °F /  -11.8 °C 4.1 °F /  -15.5 °C 30.10in /  1019.2hPa WSW 8.0mph /  12.9km/h 8.0mph /  12.9km/h 74% 0.00in /  0mm 0.0 W/m2
03:21 10.9 °F /  -11.7 °C 4.2 °F /  -15.4 °C 30.10in /  1019.2hPa SSW 2.3mph /  3.7km/h 2.3mph /  3.7km/h 74% 0.00in /  0mm 0.0 W/m2
03:22 10.9 °F /  -11.7 °C 4.2 °F /  -15.4 °C 30.10in /  1019.2hPa SSW 9.2mph /  14.8km/h 9.2mph /  14.8km/h 74% 0.00in /  0mm 0.0 W/m2
03:27 11.0 °F /  -11.7 °C 4.3 °F /  -15.4 °C 30.10in /  1019.2hPa SW 9.0mph /  14.5km/h 9.0mph /  14.5km/h 74% 0.00in /  0mm 0.0 W/m2
03:28 11.0 °F /  -11.7 °C 4.3 °F /  -15.4 °C 30.10in /  1019.2hPa SSW 9.2mph /  14.8km/h 9.2mph /  14.8km/h 74% 0.00in /  0mm 0.0 W/m2
03:31 11.0 °F /  -11.7 °C 4.3 °F /  -15.4 °C 30.10in /  1019.2hPa SW 6.9mph /  11.1km/h 6.9mph /  11.1km/h 74% 0.00in /  0mm 0.0 W/m2
03:33 11.1 °F /  -11.6 °C 4.4 °F /  -15.3 °C 30.10in /  1019.2hPa SSW 6.9mph /  11.1km/h 6.9mph /  11.1km/h 74% 0.00in /  0mm 0.0 W/m2
03:39 11.2 °F /  -11.6 °C 4.8 °F /  -15.1 °C 30.09in /  1018.8hPa SSW 9.2mph /  14.8km/h 9.2mph /  14.8km/h 75% 0.00in /  0mm 0.0 W/m2
03:40 11.2 °F /  -11.6 °C 4.8 °F /  -15.1 °C 30.09in /  1018.8hPa South 11.5mph /  18.5km/h 11.5mph /  18.5km/h 75% 0.00in /  0mm 0.0 W/m2
03:44 11.4 °F /  -11.4 °C 4.7 °F /  -15.2 °C 30.09in /  1018.8hPa SW 4.0mph /  6.4km/h 4.0mph /  6.4km/h 74% 0.00in /  0mm 0.0 W/m2
03:47 11.5 °F /  -11.4 °C 4.8 °F /  -15.1 °C 30.10in /  1019.2hPa SW 1.0mph /  1.6km/h 1.0mph /  1.6km/h 74% 0.00in /  0mm 0.0 W/m2
03:50 11.6 °F /  -11.3 °C 4.9 °F /  -15.1 °C 30.09in /  1018.8hPa SSW 8.1mph /  13km/h 8.1mph /  13km/h 74% 0.00in /  0mm 0.0 W/m2
03:55 11.7 °F /  -11.3 °C 5.0 °F /  -15 °C 30.09in /  1018.8hPa SW 8.1mph /  13km/h 8.1mph /  13km/h 74% 0.00in /  0mm 0.0 W/m2
03:59 11.9 °F /  -11.2 °C 4.9 °F /  -15.1 °C 30.09in /  1018.8hPa SSW 5.8mph /  9.3km/h 5.8mph /  9.3km/h 73% 0.00in /  0mm 0.0 W/m2
04:01 11.9 °F /  -11.2 °C 4.9 °F /  -15.1 °C 30.09in /  1018.8hPa SW 6.9mph /  11.1km/h 6.9mph /  11.1km/h 73% 0.00in /  0mm 0.0 W/m2
04:06 12.1 °F /  -11.1 °C 5.1 °F /  -14.9 °C 30.09in /  1018.8hPa SSW 10.4mph /  16.7km/h 10.4mph /  16.7km/h 73% 0.00in /  0mm 0.0 W/m2
04:11 12.3 °F /  -10.9 °C 5.3 °F /  -14.8 °C 30.08in /  1018.5hPa SSW 7.0mph /  11.3km/h 7.0mph /  11.3km/h 73% 0.00in /  0mm 0.0 W/m2
04:13 12.3 °F /  -10.9 °C 5.3 °F /  -14.8 °C 30.08in /  1018.5hPa SW 7.0mph /  11.3km/h 7.0mph /  11.3km/h 73% 0.00in /  0mm 0.0 W/m2
04:18 12.4 °F /  -10.9 °C 5.1 °F /  -14.9 °C 30.08in /  1018.5hPa SSW 9.2mph /  14.8km/h 9.2mph /  14.8km/h 72% 0.00in /  0mm 0.0 W/m2
04:19 12.4 °F /  -10.9 °C 5.1 °F /  -14.9 °C 30.08in /  1018.5hPa SSW 12.7mph /  20.4km/h 12.7mph /  20.4km/h 72% 0.00in /  0mm 0.0 W/m2
04:20 12.5 °F /  -10.8 °C 5.2 °F /  -14.9 °C 30.07in /  1018.2hPa SSW 6.9mph /  11.1km/h 6.9mph /  11.1km/h 72% 0.00in /  0mm 0.0 W/m2
04:25 12.6 °F /  -10.8 °C 5.3 °F /  -14.8 °C 30.07in /  1018.2hPa SSW 6.9mph /  11.1km/h   72% 0.00in /  0mm 0.0 W/m2
04:26 12.6 °F /  -10.8 °C 5.3 °F /  -14.8 °C 30.07in /  1018.2hPa Calm     72% 0.00in /  0mm 0.0 W/m2
04:28 12.6 °F /  -10.8 °C 5.6 °F /  -14.7 °C 30.08in /  1018.5hPa SSW 4.6mph /  7.4km/h 4.6mph /  7.4km/h 73% 0.00in /  0mm 0.0 W/m2
04:32 12.6 °F /  -10.8 °C 5.6 °F /  -14.7 °C 30.07in /  1018.2hPa SSW 8.1mph /  13km/h 8.1mph /  13km/h 73% 0.00in /  0mm 0.0 W/m2
04:35 12.6 °F /  -10.8 °C 5.6 °F /  -14.7 °C 30.07in /  1018.2hPa SSW 5.0mph /  8km/h 5.0mph /  8km/h 73% 0.00in /  0mm 0.0 W/m2
04:39 12.7 °F /  -10.7 °C 5.7 °F /  -14.6 °C 30.07in /  1018.2hPa SW 10.4mph /  16.7km/h 10.4mph /  16.7km/h 73% 0.00in /  0mm 0.0 W/m2
04:44 12.7 °F /  -10.7 °C 6.0 °F /  -14.4 °C 30.07in /  1018.2hPa SW 10.0mph /  16.1km/h 10.0mph /  16.1km/h 74% 0.00in /  0mm 0.0 W/m2
04:49 12.7 °F /  -10.7 °C 6.0 °F /  -14.4 °C 30.07in /  1018.2hPa SSW 4.6mph /  7.4km/h 4.6mph /  7.4km/h 74% 0.00in /  0mm 0.0 W/m2
04:50 12.7 °F /  -10.7 °C 6.3 °F /  -14.3 °C 30.07in /  1018.2hPa SSW 3.5mph /  5.6km/h 3.5mph /  5.6km/h 75% 0.00in /  0mm 0.0 W/m2
04:58 12.7 °F /  -10.7 °C 6.6 °F /  -14.1 °C 30.07in /  1018.2hPa Calm     76% 0.00in /  0mm 0.0 W/m2
05:04 12.8 °F /  -10.7 °C 6.7 °F /  -14.1 °C 30.07in /  1018.2hPa Calm     76% 0.00in /  0mm 0.0 W/m2
05:09 12.9 °F /  -10.6 °C 7.0 °F /  -13.9 °C 30.07in /  1018.2hPa SW 9.2mph /  14.8km/h 9.2mph /  14.8km/h 77% 0.00in /  0mm 0.0 W/m2
05:12 13.0 °F /  -10.6 °C 7.1 °F /  -13.8 °C 30.07in /  1018.2hPa WSW 8.1mph /  13km/h 8.1mph /  13km/h 77% 0.00in /  0mm 0.0 W/m2
05:16 13.1 °F /  -10.5 °C 7.5 °F /  -13.6 °C 30.07in /  1018.2hPa SW 12.7mph /  20.4km/h 12.7mph /  20.4km/h 78% 0.00in /  0mm 0.0 W/m2
05:19 13.2 °F /  -10.4 °C 7.6 °F /  -13.6 °C 30.07in /  1018.2hPa SW 12.7mph /  20.4km/h 12.7mph /  20.4km/h 78% 0.00in /  0mm 0.0 W/m2
05:22 13.2 °F /  -10.4 °C 7.9 °F /  -13.4 °C 30.07in /  1018.2hPa WSW 8.0mph /  12.9km/h 8.0mph /  12.9km/h 79% 0.00in /  0mm 0.0 W/m2
05:27 13.2 °F /  -10.4 °C 8.5 °F /  -13.1 °C 30.08in /  1018.5hPa SW 11.5mph /  18.5km/h 11.5mph /  18.5km/h 81% 0.00in /  0mm 0.0 W/m2
05:31 13.2 °F /  -10.4 °C 8.7 °F /  -12.9 °C 30.08in /  1018.5hPa SW 9.2mph /  14.8km/h 9.2mph /  14.8km/h 82% 0.00in /  0mm 0.0 W/m2
05:32 13.1 °F /  -10.5 °C 8.9 °F /  -12.8 °C 30.08in /  1018.5hPa WSW 8.1mph /  13km/h 8.1mph /  13km/h 83% 0.00in /  0mm 0.0 W/m2
05:37 13.0 °F /  -10.6 °C 9.1 °F /  -12.7 °C 30.07in /  1018.2hPa WSW 11.5mph /  18.5km/h 11.5mph /  18.5km/h 84% 0.00in /  0mm 0.0 W/m2
05:41 13.0 °F /  -10.6 °C 9.1 °F /  -12.7 °C 30.07in /  1018.2hPa WSW 8.0mph /  12.9km/h 8.0mph /  12.9km/h 84% 0.00in /  0mm 0.0 W/m2
05:46 13.0 °F /  -10.6 °C 9.3 °F /  -12.6 °C 30.07in /  1018.2hPa SW 8.1mph /  13km/h 8.1mph /  13km/h 85% 0.00in /  0mm 0.0 W/m2
05:48 13.0 °F /  -10.6 °C 9.3 °F /  -12.6 °C 30.07in /  1018.2hPa SW 9.2mph /  14.8km/h 9.2mph /  14.8km/h 85% 0.00in /  0mm 0.0 W/m2
05:53 13.0 °F /  -10.6 °C 9.6 °F /  -12.4 °C 30.07in /  1018.2hPa SSW 8.1mph /  13km/h 8.1mph /  13km/h 86% 0.00in /  0mm 0.0 W/m2
05:54 13.0 °F /  -10.6 °C 9.6 °F /  -12.4 °C 30.06in /  1017.8hPa SW 9.2mph /  14.8km/h 9.2mph /  14.8km/h 86% 0.00in /  0mm 0.0 W/m2
05:58 13.1 °F /  -10.5 °C 9.7 °F /  -12.4 °C 30.06in /  1017.8hPa SSW 8.1mph /  13km/h 8.1mph /  13km/h 86% 0.00in /  0mm 0.0 W/m2
06:00 13.1 °F /  -10.5 °C 9.7 °F /  -12.4 °C 30.06in /  1017.8hPa WSW 9.2mph /  14.8km/h 9.2mph /  14.8km/h 86% 0.00in /  0mm 0.0 W/m2
06:04 13.1 °F /  -10.5 °C 9.7 °F /  -12.4 °C 30.07in /  1018.2hPa SW 8.1mph /  13km/h 8.1mph /  13km/h 86% 0.00in /  0mm 0.0 W/m2
06:09 13.2 °F /  -10.4 °C 9.8 °F /  -12.3 °C 30.06in /  1017.8hPa SSW 11.5mph /  18.5km/h 11.5mph /  18.5km/h 86% 0.00in /  0mm 0.0 W/m2
06:10 13.2 °F /  -10.4 °C 10.1 °F /  -12.2 °C 30.06in /  1017.8hPa WSW 10.4mph /  16.7km/h 10.4mph /  16.7km/h 87% 0.00in /  0mm 0.0 W/m2
06:16 13.2 °F /  -10.4 °C 10.1 °F /  -12.2 °C 30.06in /  1017.8hPa SW 8.1mph /  13km/h 8.1mph /  13km/h 87% 0.00in /  0mm 0.0 W/m2
06:18 13.3 °F /  -10.4 °C 10.2 °F /  -12.1 °C 30.06in /  1017.8hPa SW 11.5mph /  18.5km/h 11.5mph /  18.5km/h 87% 0.00in /  0mm 0.0 W/m2
06:21 13.3 °F /  -10.4 °C 10.2 °F /  -12.1 °C 30.06in /  1017.8hPa WSW 11.5mph /  18.5km/h 11.5mph /  18.5km/h 87% 0.00in /  0mm 0.0 W/m2
06:26 13.4 °F /  -10.3 °C 10.3 °F /  -12.1 °C 30.06in /  1017.8hPa SW 2.0mph /  3.2km/h 2.0mph /  3.2km/h 87% 0.00in /  0mm 0.0 W/m2
06:27 13.4 °F /  -10.3 °C 10.3 °F /  -12.1 °C 30.06in /  1017.8hPa WSW 5.0mph /  8km/h 5.0mph /  8km/h 87% 0.00in /  0mm 0.0 W/m2
06:32 13.5 °F /  -10.3 °C 10.4 °F /  -12 °C 30.07in /  1018.2hPa SW 8.1mph /  13km/h 8.1mph /  13km/h 87% 0.00in /  0mm 0.0 W/m2
06:37 13.6 °F /  -10.2 °C 10.5 °F /  -11.9 °C 30.07in /  1018.2hPa WSW 8.1mph /  13km/h 8.1mph /  13km/h 87% 0.00in /  0mm 0.0 W/m2
06:42 13.7 °F /  -10.2 °C 10.5 °F /  -11.9 °C 30.07in /  1018.2hPa SW 9.2mph /  14.8km/h 9.2mph /  14.8km/h 87% 0.00in /  0mm 0.0 W/m2
06:43 13.7 °F /  -10.2 °C 10.5 °F /  -11.9 °C 30.07in /  1018.2hPa WSW 7.0mph /  11.3km/h 7.0mph /  11.3km/h 87% 0.00in /  0mm 0.0 W/m2
06:48 13.8 °F /  -10.1 °C 10.6 °F /  -11.9 °C 30.06in /  1017.8hPa WSW 5.8mph /  9.3km/h 5.8mph /  9.3km/h 87% 0.00in /  0mm 0.0 W/m2
06:49 13.8 °F /  -10.1 °C 10.6 °F /  -11.9 °C 30.06in /  1017.8hPa WSW 8.1mph /  13km/h 8.1mph /  13km/h 87% 0.00in /  0mm 0.0 W/m2
06:51 13.9 °F /  -10.1 °C 11.0 °F /  -11.7 °C 30.06in /  1017.8hPa WSW 6.9mph /  11.1km/h 6.9mph /  11.1km/h 88% 0.00in /  0mm 0.0 W/m2
06:55 13.9 °F /  -10.1 °C 10.7 °F /  -11.8 °C 30.07in /  1018.2hPa SW 9.2mph /  14.8km/h 9.2mph /  14.8km/h 87% 0.00in /  0mm 0.0 W/m2
07:00 14.0 °F /  -10 °C 10.8 °F /  -11.8 °C 30.07in /  1018.2hPa SW 10.4mph /  16.7km/h 10.4mph /  16.7km/h 87% 0.00in /  0mm 0.0 W/m2
07:06 14.1 °F /  -9.9 °C 10.9 °F /  -11.7 °C 30.06in /  1017.8hPa WSW 10.0mph /  16.1km/h 10.0mph /  16.1km/h 87% 0.00in /  0mm 0.0 W/m2
07:07 14.1 °F /  -9.9 °C 10.9 °F /  -11.7 °C 30.06in /  1017.8hPa WSW 11.5mph /  18.5km/h 11.5mph /  18.5km/h 87% 0.00in /  0mm 0.0 W/m2
07:12 14.2 °F /  -9.9 °C 11.0 °F /  -11.7 °C 30.07in /  1018.2hPa SW 9.2mph /  14.8km/h 9.2mph /  14.8km/h 87% 0.00in /  0mm 0.0 W/m2
07:13 14.2 °F /  -9.9 °C 11.0 °F /  -11.7 °C 30.07in /  1018.2hPa SW 8.1mph /  13km/h 8.1mph /  13km/h 87% 0.00in /  0mm 0.0 W/m2
07:18 14.3 °F /  -9.8 °C 11.1 °F /  -11.6 °C 30.06in /  1017.8hPa WSW 12.7mph /  20.4km/h 12.7mph /  20.4km/h 87% 0.00in /  0mm 0.0 W/m2
07:20 14.3 °F /  -9.8 °C 11.1 °F /  -11.6 °C 30.06in /  1017.8hPa North 10.4mph /  16.7km/h 10.4mph /  16.7km/h 87% 0.00in /  0mm 0.0 W/m2
07:23 14.3 °F /  -9.8 °C 11.1 °F /  -11.6 °C 30.06in /  1017.8hPa WSW 6.9mph /  11.1km/h 6.9mph /  11.1km/h 87% 0.00in /  0mm 0.0 W/m2
07:28 14.4 °F /  -9.8 °C 11.2 °F /  -11.6 °C 30.06in /  1017.8hPa WSW 9.2mph /  14.8km/h 9.2mph /  14.8km/h 87% 0.00in /  0mm 7.0 W/m2
07:29 14.4 °F /  -9.8 °C 11.2 °F /  -11.6 °C 30.06in /  1017.8hPa WSW 9.2mph /  14.8km/h 9.2mph /  14.8km/h 87% 0.00in /  0mm 7.0 W/m2
07:37 14.5 °F /  -9.7 °C 11.1 °F /  -11.6 °C 30.06in /  1017.8hPa West 6.0mph /  9.7km/h 6.0mph /  9.7km/h 86% 0.00in /  0mm 12.0 W/m2
07:41 14.6 °F /  -9.7 °C 11.2 °F /  -11.6 °C 30.05in /  1017.5hPa West 12.7mph /  20.4km/h 12.7mph /  20.4km/h 86% 0.00in /  0mm 14.0 W/m2
07:43 14.6 °F /  -9.7 °C 11.2 °F /  -11.6 °C 30.05in /  1017.5hPa WSW 8.1mph /  13km/h 8.1mph /  13km/h 86% 0.00in /  0mm 16.0 W/m2
07:48 14.7 °F /  -9.6 °C 11.3 °F /  -11.5 °C 30.05in /  1017.5hPa West 8.1mph /  13km/h 8.1mph /  13km/h 86% 0.00in /  0mm 21.0 W/m2
07:49 14.7 °F /  -9.6 °C 11.3 °F /  -11.5 °C 30.05in /  1017.5hPa WNW 9.2mph /  14.8km/h 9.2mph /  14.8km/h 86% 0.00in /  0mm 21.0 W/m2
07:54 14.8 °F /  -9.6 °C 11.4 °F /  -11.4 °C 30.06in /  1017.8hPa WSW 9.2mph /  14.8km/h 9.2mph /  14.8km/h 86% 0.00in /  0mm 25.0 W/m2
07:55 14.8 °F /  -9.6 °C 11.4 °F /  -11.4 °C 30.06in /  1017.8hPa WSW 8.1mph /  13km/h 8.1mph /  13km/h 86% 0.00in /  0mm 25.0 W/m2
07:56 14.8 °F /  -9.6 °C 11.4 °F /  -11.4 °C 30.06in /  1017.8hPa WSW 9.0mph /  14.5km/h 9.0mph /  14.5km/h 86% 0.00in /  0mm 25.0 W/m2
08:03 14.9 °F /  -9.5 °C 11.5 °F /  -11.4 °C 30.06in /  1017.8hPa WSW 8.1mph /  13km/h 8.1mph /  13km/h 86% 0.00in /  0mm 33.0 W/m2
08:08 15.0 °F /  -9.4 °C 11.3 °F /  -11.5 °C 30.05in /  1017.5hPa WSW 9.2mph /  14.8km/h 9.2mph /  14.8km/h 85% 0.00in /  0mm 42.0 W/m2
08:10 15.1 °F /  -9.4 °C 11.4 °F /  -11.4 °C 30.05in /  1017.5hPa WSW 8.1mph /  13km/h 8.1mph /  13km/h 85% 0.00in /  0mm 42.0 W/m2
08:15 15.2 °F /  -9.3 °C 11.5 °F /  -11.4 °C 30.05in /  1017.5hPa WSW 10.4mph /  16.7km/h 10.4mph /  16.7km/h 85% 0.00in /  0mm 47.0 W/m2
08:16 15.2 °F /  -9.3 °C 11.5 °F /  -11.4 °C 30.05in /  1017.5hPa WSW 6.9mph /  11.1km/h 6.9mph /  11.1km/h 85% 0.00in /  0mm 49.0 W/m2
08:21 15.3 °F /  -9.3 °C 11.6 °F /  -11.3 °C 30.05in /  1017.5hPa WSW 9.2mph /  14.8km/h 9.2mph /  14.8km/h 85% 0.00in /  0mm 53.0 W/m2
08:23 15.3 °F /  -9.3 °C 11.6 °F /  -11.3 °C 30.05in /  1017.5hPa WSW 11.5mph /  18.5km/h 11.5mph /  18.5km/h 85% 0.00in /  0mm 58.0 W/m2
08:28 15.4 °F /  -9.2 °C 11.7 °F /  -11.3 °C 30.05in /  1017.5hPa WSW 5.8mph /  9.3km/h 5.8mph /  9.3km/h 85% 0.00in /  0mm 62.0 W/m2
08:29 15.4 °F /  -9.2 °C 11.7 °F /  -11.3 °C 30.05in /  1017.5hPa WSW 7.0mph /  11.3km/h 7.0mph /  11.3km/h 85% 0.00in /  0mm 62.0 W/m2
08:34 15.5 °F /  -9.2 °C 11.8 °F /  -11.2 °C 30.05in /  1017.5hPa Calm     85% 0.00in /  0mm 69.0 W/m2
08:39 15.5 °F /  -9.2 °C 11.8 °F /  -11.2 °C 30.06in /  1017.8hPa West 8.1mph /  13km/h 8.1mph /  13km/h 85% 0.00in /  0mm 72.0 W/m2
08:41 15.5 °F /  -9.2 °C 11.8 °F /  -11.2 °C 30.06in /  1017.8hPa West 8.1mph /  13km/h 8.1mph /  13km/h 85% 0.00in /  0mm 74.0 W/m2
08:46 15.6 °F /  -9.1 °C 12.2 °F /  -11 °C 30.06in /  1017.8hPa WSW 11.5mph /  18.5km/h 11.5mph /  18.5km/h 86% 0.00in /  0mm 81.0 W/m2
08:47 15.7 °F /  -9.1 °C 12.3 °F /  -10.9 °C 30.06in /  1017.8hPa WSW 9.0mph /  14.5km/h 9.0mph /  14.5km/h 86% 0.00in /  0mm 83.0 W/m2
08:52 15.7 °F /  -9.1 °C 12.3 °F /  -10.9 °C 30.06in /  1017.8hPa West 7.0mph /  11.3km/h 7.0mph /  11.3km/h 86% 0.00in /  0mm 90.0 W/m2
08:53 15.7 °F /  -9.1 °C 12.3 °F /  -10.9 °C 30.06in /  1017.8hPa WSW 9.2mph /  14.8km/h 9.2mph /  14.8km/h 86% 0.00in /  0mm 90.0 W/m2
08:54 15.7 °F /  -9.1 °C 12.3 °F /  -10.9 °C 30.06in /  1017.8hPa WSW 10.4mph /  16.7km/h 10.4mph /  16.7km/h 86% 0.00in /  0mm 90.0 W/m2
08:59 15.8 °F /  -9 °C 12.4 °F /  -10.9 °C 30.06in /  1017.8hPa West 8.1mph /  13km/h 8.1mph /  13km/h 86% 0.00in /  0mm 95.0 W/m2
09:04 15.9 °F /  -8.9 °C 12.5 °F /  -10.8 °C 30.06in /  1017.8hPa WSW 8.1mph /  13km/h 8.1mph /  13km/h 86% 0.00in /  0mm 98.0 W/m2
09:07 15.9 °F /  -8.9 °C 12.5 °F /  -10.8 °C 30.06in /  1017.8hPa West 9.2mph /  14.8km/h 9.2mph /  14.8km/h 86% 0.00in /  0mm 98.0 W/m2
09:12 16.0 °F /  -8.9 °C 12.6 °F /  -10.8 °C 30.06in /  1017.8hPa WSW 9.2mph /  14.8km/h 9.2mph /  14.8km/h 86% 0.00in /  0mm 107.0 W/m2
09:17 16.1 °F /  -8.8 °C 12.7 °F /  -10.7 °C 30.06in /  1017.8hPa WSW 10.0mph /  16.1km/h 10.0mph /  16.1km/h 86% 0.00in /  0mm 114.0 W/m2
09:19 16.1 °F /  -8.8 °C 12.7 °F /  -10.7 °C 30.06in /  1017.8hPa WSW 6.9mph /  11.1km/h 6.9mph /  11.1km/h 86% 0.00in /  0mm 120.0 W/m2
09:24 16.2 °F /  -8.8 °C 13.0 °F /  -10.6 °C 30.06in /  1017.8hPa WSW 6.9mph /  11.1km/h 6.9mph /  11.1km/h 87% 0.00in /  0mm 135.0 W/m2
09:33 16.3 °F /  -8.7 °C 13.1 °F /  -10.5 °C 30.06in /  1017.8hPa WNW 6.9mph /  11.1km/h 6.9mph /  11.1km/h 87% 0.00in /  0mm 162.0 W/m2
09:37 16.4 °F /  -8.7 °C 13.2 °F /  -10.4 °C 30.07in /  1018.2hPa WSW 4.6mph /  7.4km/h 4.6mph /  7.4km/h 87% 0.00in /  0mm 155.0 W/m2
09:39 16.4 °F /  -8.7 °C 13.2 °F /  -10.4 °C 30.07in /  1018.2hPa WSW 8.1mph /  13km/h 8.1mph /  13km/h 87% 0.00in /  0mm 151.0 W/m2
09:44 16.5 °F /  -8.6 °C 13.3 °F /  -10.4 °C 30.07in /  1018.2hPa WSW 13.8mph /  22.2km/h 13.8mph /  22.2km/h 87% 0.00in /  0mm 155.0 W/m2
09:50 16.7 °F /  -8.5 °C 13.5 °F /  -10.3 °C 30.07in /  1018.2hPa West 4.6mph /  7.4km/h 4.6mph /  7.4km/h 87% 0.00in /  0mm 172.0 W/m2
09:53 16.8 °F /  -8.4 °C 13.6 °F /  -10.2 °C 30.07in /  1018.2hPa West 3.5mph /  5.6km/h 3.5mph /  5.6km/h 87% 0.00in /  0mm 163.0 W/m2
09:55 16.8 °F /  -8.4 °C 13.6 °F /  -10.2 °C 30.07in /  1018.2hPa West 11.0mph /  17.7km/h 11.0mph /  17.7km/h 87% 0.00in /  0mm 160.0 W/m2
10:00 16.9 °F /  -8.4 °C 13.4 °F /  -10.3 °C 30.07in /  1018.2hPa West 8.1mph /  13km/h 8.1mph /  13km/h 86% 0.00in /  0mm 165.0 W/m2
10:01 16.9 °F /  -8.4 °C 13.4 °F /  -10.3 °C 30.07in /  1018.2hPa WNW 8.1mph /  13km/h 8.1mph /  13km/h 86% 0.00in /  0mm 163.0 W/m2
10:02 16.9 °F /  -8.4 °C 13.4 °F /  -10.3 °C 30.07in /  1018.2hPa WSW 11.5mph /  18.5km/h 11.5mph /  18.5km/h 86% 0.00in /  0mm 169.0 W/m2
10:07 17.0 °F /  -8.3 °C 13.5 °F /  -10.3 °C 30.07in /  1018.2hPa West 9.2mph /  14.8km/h 9.2mph /  14.8km/h 86% 0.00in /  0mm 172.0 W/m2
10:09 17.0 °F /  -8.3 °C 13.5 °F /  -10.3 °C 30.07in /  1018.2hPa WNW 5.8mph /  9.3km/h 5.8mph /  9.3km/h 86% 0.00in /  0mm 176.0 W/m2
10:13 17.0 °F /  -8.3 °C 13.3 °F /  -10.4 °C 30.07in /  1018.2hPa WNW 11.5mph /  18.5km/h 11.5mph /  18.5km/h 85% 0.00in /  0mm 179.0 W/m2
10:18 16.9 °F /  -8.4 °C 13.2 °F /  -10.4 °C 30.07in /  1018.2hPa West 8.1mph /  13km/h 8.1mph /  13km/h 85% 0.00in /  0mm 193.0 W/m2
10:24 16.8 °F /  -8.4 °C 13.1 °F /  -10.5 °C 30.07in /  1018.2hPa WNW 11.5mph /  18.5km/h 11.5mph /  18.5km/h 85% 0.00in /  0mm 192.0 W/m2
10:29 16.7 °F /  -8.5 °C 13.0 °F /  -10.6 °C 30.07in /  1018.2hPa WNW 9.2mph /  14.8km/h 9.2mph /  14.8km/h 85% 0.00in /  0mm 216.0 W/m2
10:30 16.7 °F /  -8.5 °C 13.0 °F /  -10.6 °C 30.07in /  1018.2hPa WNW 9.2mph /  14.8km/h 9.2mph /  14.8km/h 85% 0.00in /  0mm 211.0 W/m2
10:37 16.6 °F /  -8.6 °C 12.9 °F /  -10.6 °C 30.07in /  1018.2hPa WNW 11.5mph /  18.5km/h 11.5mph /  18.5km/h 85% 0.00in /  0mm 225.0 W/m2
10:38 16.6 °F /  -8.6 °C 12.9 °F /  -10.6 °C 30.07in /  1018.2hPa West 10.4mph /  16.7km/h 10.4mph /  16.7km/h 85% 0.00in /  0mm 225.0 W/m2
10:39 16.7 °F /  -8.5 °C 12.7 °F /  -10.7 °C 30.07in /  1018.2hPa WNW 9.0mph /  14.5km/h 9.0mph /  14.5km/h 84% 0.00in /  0mm 223.0 W/m2
10:44 16.7 °F /  -8.5 °C 12.4 °F /  -10.9 °C 30.07in /  1018.2hPa West 6.9mph /  11.1km/h 6.9mph /  11.1km/h 83% 0.00in /  0mm 230.0 W/m2
10:45 16.7 °F /  -8.5 °C 12.4 °F /  -10.9 °C 30.07in /  1018.2hPa WNW 6.9mph /  11.1km/h 6.9mph /  11.1km/h 83% 0.00in /  0mm 225.0 W/m2
10:49 16.7 °F /  -8.5 °C 12.2 °F /  -11 °C 30.07in /  1018.2hPa West 10.4mph /  16.7km/h 10.4mph /  16.7km/h 82% 0.00in /  0mm 221.0 W/m2
10:51 16.7 °F /  -8.5 °C 12.2 °F /  -11 °C 30.07in /  1018.2hPa WNW 11.5mph /  18.5km/h 11.5mph /  18.5km/h 82% 0.00in /  0mm 223.0 W/m2
10:55 16.7 °F /  -8.5 °C 12.2 °F /  -11 °C 30.06in /  1017.8hPa WNW 9.2mph /  14.8km/h 9.2mph /  14.8km/h 82% 0.00in /  0mm 218.0 W/m2
10:57 16.6 °F /  -8.6 °C 12.1 °F /  -11.1 °C 30.07in /  1018.2hPa West 10.4mph /  16.7km/h 10.4mph /  16.7km/h 82% 0.00in /  0mm 207.0 W/m2
11:02 16.5 °F /  -8.6 °C 12.0 °F /  -11.1 °C 30.07in /  1018.2hPa NW 10.0mph /  16.1km/h 10.0mph /  16.1km/h 82% 0.00in /  0mm 213.0 W/m2
11:07 16.5 °F /  -8.6 °C 12.0 °F /  -11.1 °C 30.07in /  1018.2hPa NW 11.5mph /  18.5km/h 11.5mph /  18.5km/h 82% 0.00in /  0mm 243.0 W/m2
11:08 16.5 °F /  -8.6 °C 12.0 °F /  -11.1 °C 30.07in /  1018.2hPa NW 14.0mph /  22.5km/h 14.0mph /  22.5km/h 82% 0.00in /  0mm 248.0 W/m2
11:13 16.5 °F /  -8.6 °C 11.7 °F /  -11.3 °C 30.06in /  1017.8hPa NW 9.2mph /  14.8km/h 9.2mph /  14.8km/h 81% 0.00in /  0mm 248.0 W/m2
11:15 16.5 °F /  -8.6 °C 12.0 °F /  -11.1 °C 30.06in /  1017.8hPa WNW 9.2mph /  14.8km/h 9.2mph /  14.8km/h 82% 0.00in /  0mm 232.0 W/m2
11:18 16.5 °F /  -8.6 °C 12.0 °F /  -11.1 °C 30.06in /  1017.8hPa NW 6.9mph /  11.1km/h 6.9mph /  11.1km/h 82% 0.00in /  0mm 206.0 W/m2
11:20 16.5 °F /  -8.6 °C 12.0 °F /  -11.1 °C 30.06in /  1017.8hPa WNW 9.2mph /  14.8km/h 9.2mph /  14.8km/h 82% 0.00in /  0mm 244.0 W/m2
11:24 16.5 °F /  -8.6 °C 12.2 °F /  -11 °C 30.06in /  1017.8hPa WNW 7.0mph /  11.3km/h 7.0mph /  11.3km/h 83% 0.00in /  0mm 197.0 W/m2
11:27 16.5 °F /  -8.6 °C 12.2 °F /  -11 °C 30.06in /  1017.8hPa NW 11.5mph /  18.5km/h 11.5mph /  18.5km/h 83% 0.00in /  0mm 153.0 W/m2
11:30 16.3 °F /  -8.7 °C 12.0 °F /  -11.1 °C 30.06in /  1017.8hPa NW 11.5mph /  18.5km/h 11.5mph /  18.5km/h 83% 0.00in /  0mm 167.0 W/m2
11:33 16.2 °F /  -8.8 °C 12.2 °F /  -11 °C 30.05in /  1017.5hPa NNW 10.4mph /  16.7km/h 10.4mph /  16.7km/h 84% 0.00in /  0mm 176.0 W/m2
11:35 16.2 °F /  -8.8 °C 12.2 °F /  -11 °C 30.05in /  1017.5hPa NW 9.2mph /  14.8km/h 9.2mph /  14.8km/h 84% 0.00in /  0mm 163.0 W/m2
11:38 16.1 °F /  -8.8 °C 12.1 °F /  -11.1 °C 30.05in /  1017.5hPa NW 5.8mph /  9.3km/h 5.8mph /  9.3km/h 84% 0.00in /  0mm 188.0 W/m2
11:43 16.1 °F /  -8.8 °C 12.1 °F /  -11.1 °C 30.06in /  1017.8hPa NW 8.1mph /  13km/h 8.1mph /  13km/h 84% 0.00in /  0mm 179.0 W/m2
11:48 16.2 °F /  -8.8 °C 12.5 °F /  -10.8 °C 30.05in /  1017.5hPa WNW 5.8mph /  9.3km/h 5.8mph /  9.3km/h 85% 0.00in /  0mm 167.0 W/m2
11:49 16.2 °F /  -8.8 °C 12.2 °F /  -11 °C 30.06in /  1017.8hPa WNW 3.5mph /  5.6km/h 3.5mph /  5.6km/h 84% 0.00in /  0mm 169.0 W/m2
11:53 16.4 °F /  -8.7 °C 12.4 °F /  -10.9 °C 30.06in /  1017.8hPa WNW 5.0mph /  8km/h 5.0mph /  8km/h 84% 0.00in /  0mm 202.0 W/m2
11:54 16.4 °F /  -8.7 °C 12.4 °F /  -10.9 °C 30.06in /  1017.8hPa WNW 9.2mph /  14.8km/h 9.2mph /  14.8km/h 84% 0.00in /  0mm 214.0 W/m2
11:59 16.4 °F /  -8.7 °C 11.9 °F /  -11.2 °C 30.06in /  1017.8hPa WNW 8.1mph /  13km/h 8.1mph /  13km/h 82% 0.00in /  0mm 241.0 W/m2
12:02 16.5 °F /  -8.6 °C 11.7 °F /  -11.3 °C 30.06in /  1017.8hPa WNW 5.8mph /  9.3km/h 5.8mph /  9.3km/h 81% 0.00in /  0mm 225.0 W/m2
12:04 16.6 °F /  -8.6 °C 12.1 °F /  -11.1 °C 30.06in /  1017.8hPa NW 8.1mph /  13km/h 8.1mph /  13km/h 82% 0.00in /  0mm 200.0 W/m2
12:09 16.5 °F /  -8.6 °C 12.2 °F /  -11 °C 30.06in /  1017.8hPa WNW 6.9mph /  11.1km/h 6.9mph /  11.1km/h 83% 0.00in /  0mm 171.0 W/m2
12:13 16.4 °F /  -8.7 °C 12.4 °F /  -10.9 °C 30.06in /  1017.8hPa WNW 8.1mph /  13km/h 8.1mph /  13km/h 84% 0.00in /  0mm 163.0 W/m2
12:17 16.2 °F /  -8.8 °C 12.2 °F /  -11 °C 30.06in /  1017.8hPa WNW 10.4mph /  16.7km/h 10.4mph /  16.7km/h 84% 0.00in /  0mm 167.0 W/m2
12:22 15.9 °F /  -8.9 °C 12.5 °F /  -10.8 °C 30.06in /  1017.8hPa WNW 12.0mph /  19.3km/h 12.0mph /  19.3km/h 86% 0.00in /  0mm 179.0 W/m2
12:24 15.7 °F /  -9.1 °C 12.0 °F /  -11.1 °C 30.06in /  1017.8hPa NW 11.5mph /  18.5km/h 11.5mph /  18.5km/h 85% 0.00in /  0mm 178.0 W/m2
12:28 15.2 °F /  -9.3 °C 11.8 °F /  -11.2 °C 30.06in /  1017.8hPa WNW 13.8mph /  22.2km/h 13.8mph /  22.2km/h 86% 0.00in /  0mm 200.0 W/m2
12:30 15.2 °F /  -9.3 °C 12.0 °F /  -11.1 °C 30.06in /  1017.8hPa WNW 6.9mph /  11.1km/h 6.9mph /  11.1km/h 87% 0.00in /  0mm 216.0 W/m2
12:35 15.3 °F /  -9.3 °C 12.1 °F /  -11.1 °C 30.06in /  1017.8hPa NW 11.5mph /  18.5km/h 11.5mph /  18.5km/h 87% 0.00in /  0mm 246.0 W/m2
12:44 15.7 °F /  -9.1 °C 12.5 °F /  -10.8 °C 30.06in /  1017.8hPa WNW 12.7mph /  20.4km/h 12.7mph /  20.4km/h 87% 0.00in /  0mm 265.0 W/m2
12:45 15.7 °F /  -9.1 °C 12.5 °F /  -10.8 °C 30.06in /  1017.8hPa NW 12.7mph /  20.4km/h 12.7mph /  20.4km/h 87% 0.00in /  0mm 264.0 W/m2
12:50 15.7 °F /  -9.1 °C 12.3 °F /  -10.9 °C 30.06in /  1017.8hPa NNW 12.7mph /  20.4km/h 12.7mph /  20.4km/h 86% 0.01in /  0.25mm 250.0 W/m2
12:55 15.7 °F /  -9.1 °C 12.3 °F /  -10.9 °C 30.06in /  1017.8hPa NW 12.7mph /  20.4km/h 12.7mph /  20.4km/h 86% 0.01in /  0.25mm 265.0 W/m2
12:56 15.7 °F /  -9.1 °C 12.3 °F /  -10.9 °C 30.06in /  1017.8hPa WNW 11.5mph /  18.5km/h 11.5mph /  18.5km/h 86% 0.01in /  0.25mm 265.0 W/m2
12:57 15.7 °F /  -9.1 °C 12.3 °F /  -10.9 °C 30.06in /  1017.8hPa WNW 11.5mph /  18.5km/h 11.5mph /  18.5km/h 86% 0.01in /  0.25mm 265.0 W/m2
13:02 15.7 °F /  -9.1 °C 12.3 °F /  -10.9 °C 30.06in /  1017.8hPa West 11.5mph /  18.5km/h 11.5mph /  18.5km/h 86% 0.01in /  0.25mm 258.0 W/m2
13:07 15.5 °F /  -9.2 °C 11.5 °F /  -11.4 °C 30.06in /  1017.8hPa WNW 11.5mph /  18.5km/h 11.5mph /  18.5km/h 84% 0.01in /  0.25mm 264.0 W/m2
13:09 15.5 °F /  -9.2 °C 11.5 °F /  -11.4 °C 30.06in /  1017.8hPa WNW 10.4mph /  16.7km/h 10.4mph /  16.7km/h 84% 0.01in /  0.25mm 260.0 W/m2
13:14 15.4 °F /  -9.2 °C 11.4 °F /  -11.4 °C 30.06in /  1017.8hPa NW 12.7mph /  20.4km/h 12.7mph /  20.4km/h 84% 0.01in /  0.25mm 257.0 W/m2
13:15 15.4 °F /  -9.2 °C 11.2 °F /  -11.6 °C 30.06in /  1017.8hPa WNW 9.0mph /  14.5km/h 9.0mph /  14.5km/h 83% 0.01in /  0.25mm 257.0 W/m2
13:19 15.4 °F /  -9.2 °C 11.2 °F /  -11.6 °C 30.06in /  1017.8hPa West 15.0mph /  24.1km/h 15.0mph /  24.1km/h 83% 0.01in /  0.25mm 257.0 W/m2
13:20 15.4 °F /  -9.2 °C 11.2 °F /  -11.6 °C 30.06in /  1017.8hPa WNW 17.0mph /  27.4km/h 17.0mph /  27.4km/h 83% 0.01in /  0.25mm 251.0 W/m2
13:24 15.3 °F /  -9.3 °C 11.1 °F /  -11.6 °C 30.06in /  1017.8hPa WNW 12.7mph /  20.4km/h 12.7mph /  20.4km/h 83% 0.01in /  0.25mm 246.0 W/m2
13:29 15.3 °F /  -9.3 °C 11.1 °F /  -11.6 °C 30.06in /  1017.8hPa NW 12.7mph /  20.4km/h 12.7mph /  20.4km/h 83% 0.01in /  0.25mm 237.0 W/m2
13:32 15.3 °F /  -9.3 °C 11.1 °F /  -11.6 °C 30.06in /  1017.8hPa NW 14.0mph /  22.5km/h 14.0mph /  22.5km/h 83% 0.01in /  0.25mm 236.0 W/m2
13:35 15.2 °F /  -9.3 °C 10.7 °F /  -11.8 °C 30.06in /  1017.8hPa WNW 17.3mph /  27.8km/h 17.3mph /  27.8km/h 82% 0.01in /  0.25mm 223.0 W/m2
13:41 15.0 °F /  -9.4 °C 10.2 °F /  -12.1 °C 30.06in /  1017.8hPa NW 13.8mph /  22.2km/h 13.8mph /  22.2km/h 81% 0.01in /  0.25mm 221.0 W/m2
13:42 15.0 °F /  -9.4 °C 10.2 °F /  -12.1 °C 30.06in /  1017.8hPa WNW 12.7mph /  20.4km/h 12.7mph /  20.4km/h 81% 0.01in /  0.25mm 221.0 W/m2
13:46 14.9 °F /  -9.5 °C 10.1 °F /  -12.2 °C 30.07in /  1018.2hPa WSW 12.7mph /  20.4km/h 12.7mph /  20.4km/h 81% 0.00in /  0mm 260.0 W/m2
13:48 14.9 °F /  -9.5 °C 10.1 °F /  -12.2 °C 30.07in /  1018.2hPa WNW 11.5mph /  18.5km/h 11.5mph /  18.5km/h 81% 0.00in /  0mm 297.0 W/m2
13:51 14.9 °F /  -9.5 °C 10.1 °F /  -12.2 °C 30.07in /  1018.2hPa WNW 11.5mph /  18.5km/h 11.5mph /  18.5km/h 81% 0.00in /  0mm 230.0 W/m2
13:55 14.9 °F /  -9.5 °C 9.8 °F /  -12.3 °C 30.07in /  1018.2hPa WNW 8.1mph /  13km/h 8.1mph /  13km/h 80% 0.00in /  0mm 367.0 W/m2
13:57 14.9 °F /  -9.5 °C 9.8 °F /  -12.3 °C 30.06in /  1017.8hPa West 11.5mph /  18.5km/h 11.5mph /  18.5km/h 80% 0.00in /  0mm 359.0 W/m2
14:02 15.3 °F /  -9.3 °C 10.0 °F /  -12.2 °C 30.07in /  1018.2hPa WNW 12.0mph /  19.3km/h 12.0mph /  19.3km/h 79% 0.00in /  0mm 497.0 W/m2
14:03 15.5 °F /  -9.2 °C 10.1 °F /  -12.2 °C 30.07in /  1018.2hPa WNW 11.5mph /  18.5km/h 11.5mph /  18.5km/h 79% 0.00in /  0mm 547.0 W/m2
14:08 15.8 °F /  -9 °C 10.4 °F /  -12 °C 30.07in /  1018.2hPa WNW 10.4mph /  16.7km/h 10.4mph /  16.7km/h 79% 0.00in /  0mm 503.0 W/m2
14:13 15.8 °F /  -9 °C 10.2 °F /  -12.1 °C 30.07in /  1018.2hPa WNW 15.0mph /  24.1km/h 15.0mph /  24.1km/h 78% 0.00in /  0mm 334.0 W/m2
14:15 15.7 °F /  -9.1 °C 9.8 °F /  -12.3 °C 30.07in /  1018.2hPa WNW 11.5mph /  18.5km/h 11.5mph /  18.5km/h 77% 0.00in /  0mm 323.0 W/m2
14:20 15.5 °F /  -9.2 °C 9.6 °F /  -12.4 °C 30.07in /  1018.2hPa West 12.7mph /  20.4km/h 12.7mph /  20.4km/h 77% 0.00in /  0mm 323.0 W/m2
14:22 15.4 °F /  -9.2 °C 9.5 °F /  -12.5 °C 30.07in /  1018.2hPa WNW 11.5mph /  18.5km/h 11.5mph /  18.5km/h 77% 0.00in /  0mm 374.0 W/m2
14:26 15.3 °F /  -9.3 °C 9.4 °F /  -12.6 °C 30.08in /  1018.5hPa NW 12.7mph /  20.4km/h 12.7mph /  20.4km/h 77% 0.00in /  0mm 325.0 W/m2
14:28 15.3 °F /  -9.3 °C 9.4 °F /  -12.6 °C 30.08in /  1018.5hPa NW 11.5mph /  18.5km/h 11.5mph /  18.5km/h 77% 0.00in /  0mm 229.0 W/m2
14:31 15.2 °F /  -9.3 °C 9.3 °F /  -12.6 °C 30.08in /  1018.5hPa NW 10.4mph /  16.7km/h 10.4mph /  16.7km/h 77% 0.00in /  0mm 350.0 W/m2
14:36 15.2 °F /  -9.3 °C 9.3 °F /  -12.6 °C 30.08in /  1018.5hPa NW 12.7mph /  20.4km/h 12.7mph /  20.4km/h 77% 0.00in /  0mm 334.0 W/m2
14:39 15.0 °F /  -9.4 °C 8.8 °F /  -12.9 °C 30.08in /  1018.5hPa WNW 12.7mph /  20.4km/h 12.7mph /  20.4km/h 76% 0.00in /  0mm 269.0 W/m2
14:44 14.7 °F /  -9.6 °C 8.2 °F /  -13.2 °C 30.08in /  1018.5hPa WNW 12.7mph /  20.4km/h 12.7mph /  20.4km/h 75% 0.00in /  0mm 248.0 W/m2
14:49 14.4 °F /  -9.8 °C 7.6 °F /  -13.6 °C 30.08in /  1018.5hPa WNW 13.8mph /  22.2km/h 13.8mph /  22.2km/h 74% 0.00in /  0mm 223.0 W/m2
14:54 14.3 °F /  -9.8 °C 7.5 °F /  -13.6 °C 30.09in /  1018.8hPa WNW 10.4mph /  16.7km/h 10.4mph /  16.7km/h 74% 0.00in /  0mm 218.0 W/m2
14:57 14.2 °F /  -9.9 °C 7.4 °F /  -13.7 °C 30.09in /  1018.8hPa West 11.5mph /  18.5km/h 11.5mph /  18.5km/h 74% 0.00in /  0mm 213.0 W/m2
15:01 14.2 °F /  -9.9 °C 7.7 °F /  -13.5 °C 30.09in /  1018.8hPa West 11.5mph /  18.5km/h 11.5mph /  18.5km/h 75% 0.00in /  0mm 202.0 W/m2
15:02 14.1 °F /  -9.9 °C 7.6 °F /  -13.6 °C 30.09in /  1018.8hPa WNW 11.5mph /  18.5km/h 11.5mph /  18.5km/h 75% 0.00in /  0mm 195.0 W/m2
15:07 14.0 °F /  -10 °C 7.2 °F /  -13.8 °C 30.09in /  1018.8hPa WNW 8.1mph /  13km/h 8.1mph /  13km/h 74% 0.00in /  0mm 178.0 W/m2
15:10 14.0 °F /  -10 °C 7.2 °F /  -13.8 °C 30.09in /  1018.8hPa West 9.0mph /  14.5km/h 9.0mph /  14.5km/h 74% 0.00in /  0mm 167.0 W/m2
15:13 13.9 °F /  -10.1 °C 7.1 °F /  -13.8 °C 30.10in /  1019.2hPa NW 12.0mph /  19.3km/h 12.0mph /  19.3km/h 74% 0.00in /  0mm 160.0 W/m2
15:17 13.7 °F /  -10.2 °C 6.9 °F /  -13.9 °C 30.09in /  1018.8hPa WNW 12.7mph /  20.4km/h 12.7mph /  20.4km/h 74% 0.00in /  0mm 149.0 W/m2
15:18 13.7 °F /  -10.2 °C 6.9 °F /  -13.9 °C 30.10in /  1019.2hPa WNW 11.5mph /  18.5km/h 11.5mph /  18.5km/h 74% 0.00in /  0mm 141.0 W/m2
15:23 13.5 °F /  -10.3 °C 6.5 °F /  -14.2 °C 30.10in /  1019.2hPa WNW 11.5mph /  18.5km/h 11.5mph /  18.5km/h 73% 0.00in /  0mm 125.0 W/m2
15:24 13.5 °F /  -10.3 °C 6.5 °F /  -14.2 °C 30.10in /  1019.2hPa WNW 11.5mph /  18.5km/h 11.5mph /  18.5km/h 73% 0.00in /  0mm 125.0 W/m2
15:26 13.4 °F /  -10.3 °C 6.4 °F /  -14.2 °C 30.10in /  1019.2hPa NW 11.5mph /  18.5km/h 11.5mph /  18.5km/h 73% 0.00in /  0mm 118.0 W/m2
15:39 13.0 °F /  -10.6 °C 6.0 °F /  -14.4 °C 30.11in /  1019.5hPa WNW 10.4mph /  16.7km/h 10.4mph /  16.7km/h 73% 0.00in /  0mm 90.0 W/m2
15:40 13.0 °F /  -10.6 °C 6.0 °F /  -14.4 °C 30.11in /  1019.5hPa West 8.1mph /  13km/h 8.1mph /  13km/h 73% 0.00in /  0mm 86.0 W/m2
15:41 13.0 °F /  -10.6 °C 6.0 °F /  -14.4 °C 30.11in /  1019.5hPa WNW 11.0mph /  17.7km/h 11.0mph /  17.7km/h 73% 0.00in /  0mm 77.0 W/m2
15:46 12.8 °F /  -10.7 °C 5.8 °F /  -14.6 °C 30.11in /  1019.5hPa NW 8.1mph /  13km/h 8.1mph /  13km/h 73% 0.00in /  0mm 37.0 W/m2
15:49 12.6 °F /  -10.8 °C 5.6 °F /  -14.7 °C 30.11in /  1019.5hPa West 10.4mph /  16.7km/h 10.4mph /  16.7km/h 73% 0.00in /  0mm 35.0 W/m2
15:56 12.3 °F /  -10.9 °C 5.6 °F /  -14.7 °C 30.11in /  1019.5hPa WNW 10.4mph /  16.7km/h 10.4mph /  16.7km/h 74% 0.00in /  0mm 30.0 W/m2
15:58 12.2 °F /  -11 °C 5.5 °F /  -14.7 °C 30.11in /  1019.5hPa West 10.4mph /  16.7km/h 10.4mph /  16.7km/h 74% 0.00in /  0mm 28.0 W/m2
16:02 12.1 °F /  -11.1 °C 5.4 °F /  -14.8 °C 30.11in /  1019.5hPa WNW 6.9mph /  11.1km/h 6.9mph /  11.1km/h 74% 0.00in /  0mm 26.0 W/m2
16:03 12.1 °F /  -11.1 °C 5.4 °F /  -14.8 °C 30.11in /  1019.5hPa West 11.5mph /  18.5km/h 11.5mph /  18.5km/h 74% 0.00in /  0mm 25.0 W/m2
16:08 11.9 °F /  -11.2 °C 5.2 °F /  -14.9 °C 30.12in /  1019.9hPa WNW 8.1mph /  13km/h 8.1mph /  13km/h 74% 0.00in /  0mm 21.0 W/m2
16:09 11.9 °F /  -11.2 °C 5.2 °F /  -14.9 °C 30.12in /  1019.9hPa NW 11.5mph /  18.5km/h 11.5mph /  18.5km/h 74% 0.00in /  0mm 21.0 W/m2
16:14 11.7 °F /  -11.3 °C 5.0 °F /  -15 °C 30.12in /  1019.9hPa NW 11.5mph /  18.5km/h 11.5mph /  18.5km/h 74% 0.00in /  0mm 18.0 W/m2
16:19 11.5 °F /  -11.4 °C 4.8 °F /  -15.1 °C 30.12in /  1019.9hPa WNW 8.1mph /  13km/h 8.1mph /  13km/h 74% 0.00in /  0mm 14.0 W/m2
16:24 11.3 °F /  -11.5 °C 4.9 °F /  -15.1 °C 30.13in /  1020.2hPa WNW 10.4mph /  16.7km/h 10.4mph /  16.7km/h 75% 0.00in /  0mm 11.0 W/m2
16:25 11.3 °F /  -11.5 °C 4.9 °F /  -15.1 °C 30.13in /  1020.2hPa WNW 7.0mph /  11.3km/h 7.0mph /  11.3km/h 75% 0.00in /  0mm 11.0 W/m2
16:26 11.1 °F /  -11.6 °C 4.7 °F /  -15.2 °C 30.13in /  1020.2hPa NW 8.0mph /  12.9km/h 8.0mph /  12.9km/h 75% 0.00in /  0mm 11.0 W/m2
16:30 11.0 °F /  -11.7 °C 4.6 °F /  -15.2 °C 30.13in /  1020.2hPa West 5.8mph /  9.3km/h 5.8mph /  9.3km/h 75% 0.00in /  0mm 7.0 W/m2
16:31 10.9 °F /  -11.7 °C 4.5 °F /  -15.3 °C 30.13in /  1020.2hPa WNW 11.5mph /  18.5km/h 11.5mph /  18.5km/h 75% 0.00in /  0mm 7.0 W/m2
16:36 10.8 °F /  -11.8 °C 4.7 °F /  -15.2 °C 30.13in /  1020.2hPa WNW 10.4mph /  16.7km/h 10.4mph /  16.7km/h 76% 0.00in /  0mm 0.0 W/m2
16:37 10.8 °F /  -11.8 °C 4.7 °F /  -15.2 °C 30.13in /  1020.2hPa WNW 10.4mph /  16.7km/h 10.4mph /  16.7km/h 76% 0.00in /  0mm 0.0 W/m2
16:42 10.6 °F /  -11.9 °C 4.2 °F /  -15.4 °C 30.13in /  1020.2hPa NW 11.5mph /  18.5km/h 11.5mph /  18.5km/h 75% 0.00in /  0mm 0.0 W/m2
16:43 10.5 °F /  -11.9 °C 4.4 °F /  -15.3 °C 30.13in /  1020.2hPa WNW 9.2mph /  14.8km/h 9.2mph /  14.8km/h 76% 0.00in /  0mm 0.0 W/m2
16:47 10.4 °F /  -12 °C 4.3 °F /  -15.4 °C 30.14in /  1020.5hPa West 6.9mph /  11.1km/h 6.9mph /  11.1km/h 76% 0.00in /  0mm 0.0 W/m2
16:48 10.4 °F /  -12 °C 4.3 °F /  -15.4 °C 30.14in /  1020.5hPa WNW 11.5mph /  18.5km/h 11.5mph /  18.5km/h 76% 0.00in /  0mm 0.0 W/m2
16:53 10.3 °F /  -12.1 °C 4.5 °F /  -15.3 °C 30.14in /  1020.5hPa West 9.2mph /  14.8km/h 9.2mph /  14.8km/h 77% 0.00in /  0mm 0.0 W/m2
16:55 10.3 °F /  -12.1 °C 4.5 °F /  -15.3 °C 30.14in /  1020.5hPa West 10.4mph /  16.7km/h 10.4mph /  16.7km/h 77% 0.00in /  0mm 0.0 W/m2
17:00 10.1 °F /  -12.2 °C 4.0 °F /  -15.6 °C 30.14in /  1020.5hPa WNW 9.2mph /  14.8km/h 9.2mph /  14.8km/h 76% 0.00in /  0mm 0.0 W/m2
17:01 10.0 °F /  -12.2 °C 3.9 °F /  -15.6 °C 30.14in /  1020.5hPa West 9.2mph /  14.8km/h 9.2mph /  14.8km/h 76% 0.00in /  0mm 0.0 W/m2
17:06 9.9 °F /  -12.3 °C 4.1 °F /  -15.5 °C 30.14in /  1020.5hPa West 8.1mph /  13km/h 8.1mph /  13km/h 77% 0.00in /  0mm 0.0 W/m2
17:11 9.6 °F /  -12.4 °C 3.8 °F /  -15.7 °C 30.14in /  1020.5hPa NW 6.9mph /  11.1km/h 6.9mph /  11.1km/h 77% 0.00in /  0mm 0.0 W/m2
17:14 9.5 °F /  -12.5 °C 3.7 °F /  -15.7 °C 30.14in /  1020.5hPa WNW 12.0mph /  19.3km/h 12.0mph /  19.3km/h 77% 0.00in /  0mm 0.0 W/m2
17:17 9.5 °F /  -12.5 °C 3.7 °F /  -15.7 °C 30.14in /  1020.5hPa WNW 9.2mph /  14.8km/h 9.2mph /  14.8km/h 77% 0.00in /  0mm 0.0 W/m2
17:22 9.4 °F /  -12.6 °C 3.6 °F /  -15.8 °C 30.15in /  1020.9hPa WNW 8.1mph /  13km/h 8.1mph /  13km/h 77% 0.00in /  0mm 0.0 W/m2
17:24 9.4 °F /  -12.6 °C 3.6 °F /  -15.8 °C 30.15in /  1020.9hPa WNW 9.2mph /  14.8km/h 9.2mph /  14.8km/h 77% 0.00in /  0mm 0.0 W/m2
17:29 9.4 °F /  -12.6 °C 3.6 °F /  -15.8 °C 30.15in /  1020.9hPa WNW 11.5mph /  18.5km/h 11.5mph /  18.5km/h 77% 0.00in /  0mm 0.0 W/m2
17:30 9.3 °F /  -12.6 °C 3.5 °F /  -15.8 °C 30.15in /  1020.9hPa WNW 10.4mph /  16.7km/h 10.4mph /  16.7km/h 77% 0.00in /  0mm 0.0 W/m2
17:34 9.2 °F /  -12.7 °C 3.4 °F /  -15.9 °C 30.15in /  1020.9hPa WNW 10.4mph /  16.7km/h 10.4mph /  16.7km/h 77% 0.00in /  0mm 0.0 W/m2
17:36 9.1 °F /  -12.7 °C 3.4 °F /  -15.9 °C 30.15in /  1020.9hPa WNW 8.1mph /  13km/h 8.1mph /  13km/h 77% 0.00in /  0mm 0.0 W/m2
17:39 9.0 °F /  -12.8 °C 3.3 °F /  -15.9 °C 30.15in /  1020.9hPa West 9.0mph /  14.5km/h 9.0mph /  14.5km/h 77% 0.00in /  0mm 0.0 W/m2
17:44 9.0 °F /  -12.8 °C 3.5 °F /  -15.8 °C 30.15in /  1020.9hPa NW 8.1mph /  13km/h 8.1mph /  13km/h 78% 0.00in /  0mm 0.0 W/m2
17:45 8.9 °F /  -12.8 °C 3.4 °F /  -15.9 °C 30.15in /  1020.9hPa WNW 8.1mph /  13km/h 8.1mph /  13km/h 78% 0.00in /  0mm 0.0 W/m2
17:50 8.7 °F /  -12.9 °C 3.2 °F /  -16 °C 30.15in /  1020.9hPa WNW 6.9mph /  11.1km/h 6.9mph /  11.1km/h 78% 0.00in /  0mm 0.0 W/m2
18:00 8.5 °F /  -13.1 °C 3.0 °F /  -16.1 °C 30.16in /  1021.2hPa WNW 11.5mph /  18.5km/h 11.5mph /  18.5km/h 78% 0.00in /  0mm 0.0 W/m2
18:05 8.6 °F /  -13 °C 3.1 °F /  -16.1 °C 30.16in /  1021.2hPa NW 9.2mph /  14.8km/h 9.2mph /  14.8km/h 78% 0.00in /  0mm 0.0 W/m2
18:06 8.6 °F /  -13 °C 3.1 °F /  -16.1 °C 30.17in /  1021.6hPa West 9.2mph /  14.8km/h 9.2mph /  14.8km/h 78% 0.00in /  0mm 0.0 W/m2
18:11 8.6 °F /  -13 °C 3.1 °F /  -16.1 °C 30.16in /  1021.2hPa WNW 8.1mph /  13km/h 8.1mph /  13km/h 78% 0.00in /  0mm 0.0 W/m2
18:16 8.5 °F /  -13.1 °C 3.0 °F /  -16.1 °C 30.17in /  1021.6hPa WNW 9.2mph /  14.8km/h 9.2mph /  14.8km/h 78% 0.00in /  0mm 0.0 W/m2
18:19 8.4 °F /  -13.1 °C 2.9 °F /  -16.2 °C 30.17in /  1021.6hPa West 8.1mph /  13km/h 8.1mph /  13km/h 78% 0.00in /  0mm 0.0 W/m2
18:21 8.4 °F /  -13.1 °C 2.9 °F /  -16.2 °C 30.17in /  1021.6hPa WNW 10.4mph /  16.7km/h 10.4mph /  16.7km/h 78% 0.00in /  0mm 0.0 W/m2
18:26 8.2 °F /  -13.2 °C 2.5 °F /  -16.4 °C 30.17in /  1021.6hPa NW 10.4mph /  16.7km/h 10.4mph /  16.7km/h 77% 0.00in /  0mm 0.0 W/m2
18:27 8.2 °F /  -13.2 °C 2.5 °F /  -16.4 °C 30.18in /  1021.9hPa NW 5.8mph /  9.3km/h 5.8mph /  9.3km/h 77% 0.00in /  0mm 0.0 W/m2
18:32 8.1 °F /  -13.3 °C 2.7 °F /  -16.3 °C 30.18in /  1021.9hPa WNW 11.5mph /  18.5km/h 11.5mph /  18.5km/h 78% 0.00in /  0mm 0.0 W/m2
18:33 8.0 °F /  -13.3 °C 2.6 °F /  -16.3 °C 30.18in /  1021.9hPa WNW 9.2mph /  14.8km/h 9.2mph /  14.8km/h 78% 0.00in /  0mm 0.0 W/m2
18:38 7.9 °F /  -13.4 °C 2.5 °F /  -16.4 °C 30.18in /  1021.9hPa NW 10.4mph /  16.7km/h 10.4mph /  16.7km/h 78% 0.00in /  0mm 0.0 W/m2
18:39 7.9 °F /  -13.4 °C 2.5 °F /  -16.4 °C 30.18in /  1021.9hPa NW 10.4mph /  16.7km/h 10.4mph /  16.7km/h 78% 0.00in /  0mm 0.0 W/m2
18:44 7.8 °F /  -13.4 °C 2.1 °F /  -16.6 °C 30.18in /  1021.9hPa West 6.0mph /  9.7km/h 6.0mph /  9.7km/h 77% 0.00in /  0mm 0.0 W/m2
18:49 7.6 °F /  -13.6 °C 2.2 °F /  -16.6 °C 30.18in /  1021.9hPa WNW 6.9mph /  11.1km/h 6.9mph /  11.1km/h 78% 0.00in /  0mm 0.0 W/m2
18:51 7.5 °F /  -13.6 °C 1.8 °F /  -16.8 °C 30.18in /  1021.9hPa WNW 6.9mph /  11.1km/h 6.9mph /  11.1km/h 77% 0.00in /  0mm 0.0 W/m2
18:54 7.4 °F /  -13.7 °C 1.7 °F /  -16.8 °C 30.18in /  1021.9hPa WNW 11.5mph /  18.5km/h 11.5mph /  18.5km/h 77% 0.00in /  0mm 0.0 W/m2
18:56 7.4 °F /  -13.7 °C 2.0 °F /  -16.7 °C 30.18in /  1021.9hPa WNW 7.0mph /  11.3km/h 7.0mph /  11.3km/h 78% 0.00in /  0mm 0.0 W/m2
19:01 7.2 °F /  -13.8 °C 1.5 °F /  -16.9 °C 30.18in /  1021.9hPa WNW 6.9mph /  11.1km/h 6.9mph /  11.1km/h 77% 0.00in /  0mm 0.0 W/m2
19:02 7.2 °F /  -13.8 °C 1.5 °F /  -16.9 °C 30.18in /  1021.9hPa West 6.9mph /  11.1km/h 6.9mph /  11.1km/h 77% 0.00in /  0mm 0.0 W/m2
19:03 7.2 °F /  -13.8 °C 1.5 °F /  -16.9 °C 30.18in /  1021.9hPa WNW 10.4mph /  16.7km/h 10.4mph /  16.7km/h 77% 0.00in /  0mm 0.0 W/m2
19:08 7.1 °F /  -13.8 °C 1.7 °F /  -16.8 °C 30.19in /  1022.2hPa WNW 9.0mph /  14.5km/h 9.0mph /  14.5km/h 78% 0.00in /  0mm 0.0 W/m2
19:09 7.1 °F /  -13.8 °C 1.4 °F /  -17 °C 30.19in /  1022.2hPa NW 10.4mph /  16.7km/h 10.4mph /  16.7km/h 77% 0.00in /  0mm 0.0 W/m2
19:13 7.0 °F /  -13.9 °C 1.3 °F /  -17.1 °C 30.19in /  1022.2hPa WNW 10.4mph /  16.7km/h 10.4mph /  16.7km/h 77% 0.00in /  0mm 0.0 W/m2
19:14 7.0 °F /  -13.9 °C 1.3 °F /  -17.1 °C 30.19in /  1022.2hPa WNW 9.0mph /  14.5km/h 9.0mph /  14.5km/h 77% 0.00in /  0mm 0.0 W/m2
19:19 6.9 °F /  -13.9 °C 1.2 °F /  -17.1 °C 30.19in /  1022.2hPa WNW 8.1mph /  13km/h 8.1mph /  13km/h 77% 0.00in /  0mm 0.0 W/m2
19:20 6.9 °F /  -13.9 °C 1.2 °F /  -17.1 °C 30.19in /  1022.2hPa NW 8.1mph /  13km/h 8.1mph /  13km/h 77% 0.00in /  0mm 0.0 W/m2
19:25 6.7 °F /  -14.1 °C 1.0 °F /  -17.2 °C 30.19in /  1022.2hPa WNW 8.1mph /  13km/h 8.1mph /  13km/h 77% 0.00in /  0mm 0.0 W/m2
19:30 6.5 °F /  -14.2 °C 0.8 °F /  -17.3 °C 30.19in /  1022.2hPa West 6.9mph /  11.1km/h 6.9mph /  11.1km/h 77% 0.00in /  0mm 0.0 W/m2
19:31 6.5 °F /  -14.2 °C 0.8 °F /  -17.3 °C 30.19in /  1022.2hPa WNW 9.2mph /  14.8km/h 9.2mph /  14.8km/h 77% 0.00in /  0mm 0.0 W/m2
19:36 6.3 °F /  -14.3 °C 0.6 °F /  -17.4 °C 30.19in /  1022.2hPa WNW 9.2mph /  14.8km/h 9.2mph /  14.8km/h 77% 0.00in /  0mm 0.0 W/m2
19:41 6.3 °F /  -14.3 °C 0.6 °F /  -17.4 °C 30.19in /  1022.2hPa WNW 8.1mph /  13km/h 8.1mph /  13km/h 77% 0.00in /  0mm 0.0 W/m2
19:46 6.2 °F /  -14.3 °C 0.5 °F /  -17.5 °C 30.19in /  1022.2hPa WNW 10.4mph /  16.7km/h 10.4mph /  16.7km/h 77% 0.00in /  0mm 0.0 W/m2
19:47 6.2 °F /  -14.3 °C 0.5 °F /  -17.5 °C 30.19in /  1022.2hPa WNW 10.4mph /  16.7km/h 10.4mph /  16.7km/h 77% 0.00in /  0mm 0.0 W/m2
19:48 6.2 °F /  -14.3 °C 0.5 °F /  -17.5 °C 30.19in /  1022.2hPa WNW 5.8mph /  9.3km/h 5.8mph /  9.3km/h 77% 0.00in /  0mm 0.0 W/m2
19:53 6.0 °F /  -14.4 °C 0.3 °F /  -17.6 °C 30.20in /  1022.6hPa NW 9.2mph /  14.8km/h 9.2mph /  14.8km/h 77% 0.00in /  0mm 0.0 W/m2
19:58 5.7 °F /  -14.6 °C 0.0 °F /  -17.8 °C 30.19in /  1022.2hPa WNW 9.2mph /  14.8km/h 9.2mph /  14.8km/h 77% 0.00in /  0mm 0.0 W/m2
20:03 5.5 °F /  -14.7 °C -0.1 °F /  -17.8 °C 30.19in /  1022.2hPa WNW 9.0mph /  14.5km/h 9.0mph /  14.5km/h 77% 0.01in /  0.25mm 0.0 W/m2
20:04 5.5 °F /  -14.7 °C -0.1 °F /  -17.8 °C 30.19in /  1022.2hPa WNW 9.2mph /  14.8km/h 9.2mph /  14.8km/h 77% 0.01in /  0.25mm 0.0 W/m2
20:06 5.4 °F /  -14.8 °C -0.2 °F /  -17.9 °C 30.19in /  1022.2hPa West 9.0mph /  14.5km/h 9.0mph /  14.5km/h 77% 0.01in /  0.25mm 0.0 W/m2
20:09 5.3 °F /  -14.8 °C -0.3 °F /  -17.9 °C 30.19in /  1022.2hPa WNW 6.9mph /  11.1km/h 6.9mph /  11.1km/h 77% 0.01in /  0.25mm 0.0 W/m2
20:14 5.0 °F /  -15 °C -0.6 °F /  -18.1 °C 30.19in /  1022.2hPa WNW 5.8mph /  9.3km/h 5.8mph /  9.3km/h 77% 0.01in /  0.25mm 0.0 W/m2
20:16 5.0 °F /  -15 °C -0.6 °F /  -18.1 °C 30.19in /  1022.2hPa WNW 9.2mph /  14.8km/h 9.2mph /  14.8km/h 77% 0.01in /  0.25mm 0.0 W/m2
20:21 4.7 °F /  -15.2 °C -0.9 °F /  -18.3 °C 30.20in /  1022.6hPa WNW 6.9mph /  11.1km/h 6.9mph /  11.1km/h 77% 0.02in /  0.51mm 0.0 W/m2
20:22 4.6 °F /  -15.2 °C -0.8 °F /  -18.2 °C 30.20in /  1022.6hPa West 9.2mph /  14.8km/h 9.2mph /  14.8km/h 78% 0.02in /  0.51mm 0.0 W/m2
20:27 4.5 °F /  -15.3 °C -0.8 °F /  -18.2 °C 30.19in /  1022.2hPa WNW 8.1mph /  13km/h 8.1mph /  13km/h 78% 0.02in /  0.51mm 0.0 W/m2
20:29 4.4 °F /  -15.3 °C -0.9 °F /  -18.3 °C 30.20in /  1022.6hPa WNW 4.6mph /  7.4km/h 4.6mph /  7.4km/h 78% 0.02in /  0.51mm 0.0 W/m2
20:31 4.4 °F /  -15.3 °C -0.9 °F /  -18.3 °C 30.19in /  1022.2hPa WNW 5.8mph /  9.3km/h 5.8mph /  9.3km/h 78% 0.02in /  0.51mm 0.0 W/m2
20:35 4.4 °F /  -15.3 °C -0.9 °F /  -18.3 °C 30.19in /  1022.2hPa WNW 10.4mph /  16.7km/h 10.4mph /  16.7km/h 78% 0.02in /  0.51mm 0.0 W/m2
20:36 4.4 °F /  -15.3 °C -0.9 °F /  -18.3 °C 30.19in /  1022.2hPa WNW 6.9mph /  11.1km/h 6.9mph /  11.1km/h 78% 0.02in /  0.51mm 0.0 W/m2
20:41 4.4 °F /  -15.3 °C -0.9 °F /  -18.3 °C 30.20in /  1022.6hPa NW 9.2mph /  14.8km/h 9.2mph /  14.8km/h 78% 0.02in /  0.51mm 0.0 W/m2
20:43 4.4 °F /  -15.3 °C -0.9 °F /  -18.3 °C 30.20in /  1022.6hPa West 9.2mph /  14.8km/h 9.2mph /  14.8km/h 78% 0.02in /  0.51mm 0.0 W/m2
20:48 4.3 °F /  -15.4 °C -1.0 °F /  -18.3 °C 30.20in /  1022.6hPa WNW 9.2mph /  14.8km/h 9.2mph /  14.8km/h 78% 0.02in /  0.51mm 0.0 W/m2
20:58 4.1 °F /  -15.5 °C -1.2 °F /  -18.4 °C 30.20in /  1022.6hPa NW 9.2mph /  14.8km/h 9.2mph /  14.8km/h 78% 0.03in /  0.76mm 0.0 W/m2
20:59 4.1 °F /  -15.5 °C -1.2 °F /  -18.4 °C 30.20in /  1022.6hPa WNW 8.1mph /  13km/h 8.1mph /  13km/h 78% 0.03in /  0.76mm 0.0 W/m2
21:04 4.1 °F /  -15.5 °C -1.2 °F /  -18.4 °C 30.20in /  1022.6hPa WNW 8.1mph /  13km/h 8.1mph /  13km/h 78% 0.02in /  0.51mm 0.0 W/m2
21:05 4.1 °F /  -15.5 °C -1.2 °F /  -18.4 °C 30.20in /  1022.6hPa NW 10.4mph /  16.7km/h 10.4mph /  16.7km/h 78% 0.02in /  0.51mm 0.0 W/m2
21:10 4.1 °F /  -15.5 °C -1.2 °F /  -18.4 °C 30.20in /  1022.6hPa NW 6.9mph /  11.1km/h 6.9mph /  11.1km/h 78% 0.02in /  0.51mm 0.0 W/m2
21:14 4.1 °F /  -15.5 °C -1.2 °F /  -18.4 °C 30.20in /  1022.6hPa NW 9.2mph /  14.8km/h 9.2mph /  14.8km/h 78% 0.02in /  0.51mm 0.0 W/m2
21:16 4.0 °F /  -15.6 °C -1.3 °F /  -18.5 °C 30.20in /  1022.6hPa WNW 8.1mph /  13km/h 8.1mph /  13km/h 78% 0.02in /  0.51mm 0.0 W/m2
21:21 4.0 °F /  -15.6 °C -1.3 °F /  -18.5 °C 30.20in /  1022.6hPa WNW 8.1mph /  13km/h 8.1mph /  13km/h 78% 0.01in /  0.25mm 0.0 W/m2
21:26 4.0 °F /  -15.6 °C -1.6 °F /  -18.7 °C 30.20in /  1022.6hPa WNW 9.2mph /  14.8km/h 9.2mph /  14.8km/h 77% 0.01in /  0.25mm 0.0 W/m2
21:27 4.0 °F /  -15.6 °C -1.3 °F /  -18.5 °C 30.20in /  1022.6hPa NW 8.1mph /  13km/h 8.1mph /  13km/h 78% 0.01in /  0.25mm 0.0 W/m2
21:31 3.8 °F /  -15.7 °C -1.8 °F /  -18.8 °C 30.20in /  1022.6hPa WNW 9.2mph /  14.8km/h 9.2mph /  14.8km/h 77% 0.01in /  0.25mm 0.0 W/m2
21:32 3.8 °F /  -15.7 °C -1.8 °F /  -18.8 °C 30.20in /  1022.6hPa WNW 9.2mph /  14.8km/h 9.2mph /  14.8km/h 77% 0.01in /  0.25mm 0.0 W/m2
21:37 3.5 °F /  -15.8 °C -2.1 °F /  -18.9 °C 30.20in /  1022.6hPa WNW 9.2mph /  14.8km/h 9.2mph /  14.8km/h 77% 0.01in /  0.25mm 0.0 W/m2
21:38 3.5 °F /  -15.8 °C -2.1 °F /  -18.9 °C 30.20in /  1022.6hPa WNW 9.2mph /  14.8km/h 9.2mph /  14.8km/h 77% 0.01in /  0.25mm 0.0 W/m2
21:43 3.2 °F /  -16 °C -2.4 °F /  -19.1 °C 30.20in /  1022.6hPa WNW 9.2mph /  14.8km/h 9.2mph /  14.8km/h 77% 0.01in /  0.25mm 0.0 W/m2
21:48 3.1 °F /  -16.1 °C -2.2 °F /  -19 °C 30.20in /  1022.6hPa WNW 9.2mph /  14.8km/h 9.2mph /  14.8km/h 78% 0.00in /  0mm 0.0 W/m2
21:51 3.0 °F /  -16.1 °C -2.3 °F /  -19.1 °C 30.20in /  1022.6hPa WNW 10.4mph /  16.7km/h 10.4mph /  16.7km/h 78% 0.00in /  0mm 0.0 W/m2
21:55 3.0 °F /  -16.1 °C -2.3 °F /  -19.1 °C 30.20in /  1022.6hPa WNW 10.4mph /  16.7km/h 10.4mph /  16.7km/h 78% 0.00in /  0mm 0.0 W/m2
22:00 3.0 °F /  -16.1 °C -2.3 °F /  -19.1 °C 30.21in /  1022.9hPa NW 11.5mph /  18.5km/h 11.5mph /  18.5km/h 78% 0.00in /  0mm 0.0 W/m2
22:01 3.0 °F /  -16.1 °C -2.3 °F /  -19.1 °C 30.20in /  1022.6hPa WNW 10.4mph /  16.7km/h 10.4mph /  16.7km/h 78% 0.00in /  0mm 0.0 W/m2
22:05 3.0 °F /  -16.1 °C -2.3 °F /  -19.1 °C 30.20in /  1022.6hPa WNW 8.1mph /  13km/h 8.1mph /  13km/h 78% 0.00in /  0mm 0.0 W/m2
22:06 3.0 °F /  -16.1 °C -2.3 °F /  -19.1 °C 30.20in /  1022.6hPa WNW 6.9mph /  11.1km/h 6.9mph /  11.1km/h 78% 0.00in /  0mm 0.0 W/m2
22:10 2.9 °F /  -16.2 °C -2.4 °F /  -19.1 °C 30.20in /  1022.6hPa WNW 8.1mph /  13km/h 8.1mph /  13km/h 78% 0.00in /  0mm 0.0 W/m2
22:11 2.8 °F /  -16.2 °C -2.5 °F /  -19.2 °C 30.20in /  1022.6hPa NW 9.2mph /  14.8km/h 9.2mph /  14.8km/h 78% 0.00in /  0mm 0.0 W/m2
22:13 2.7 °F /  -16.3 °C -2.6 °F /  -19.2 °C 30.27in /  1024.9hPa West 8.1mph /  13km/h 8.1mph /  13km/h 78% 0.00in /  0mm 0.0 W/m2
22:14 2.7 °F /  -16.3 °C -2.6 °F /  -19.2 °C 30.27in /  1024.9hPa WNW 8.1mph /  13km/h 8.1mph /  13km/h 78% 0.00in /  0mm 0.0 W/m2
22:15 2.6 °F /  -16.3 °C -2.7 °F /  -19.3 °C 30.27in /  1024.9hPa WNW 10.4mph /  16.7km/h 10.4mph /  16.7km/h 78% 0.00in /  0mm 0.0 W/m2
22:16 2.6 °F /  -16.3 °C -2.7 °F /  -19.3 °C 30.20in /  1022.6hPa WNW 10.4mph /  16.7km/h 10.4mph /  16.7km/h 78% 0.00in /  0mm 0.0 W/m2
22:17 2.6 °F /  -16.3 °C -2.7 °F /  -19.3 °C 30.21in /  1022.9hPa NW 10.4mph /  16.7km/h 10.4mph /  16.7km/h 78% 0.00in /  0mm 0.0 W/m2
22:22 2.5 °F /  -16.4 °C -2.8 °F /  -19.3 °C 30.21in /  1022.9hPa WNW 5.0mph /  8km/h 5.0mph /  8km/h 78% 0.00in /  0mm 0.0 W/m2
22:27 2.2 °F /  -16.6 °C -3.1 °F /  -19.5 °C 30.20in /  1022.6hPa NW 10.4mph /  16.7km/h 10.4mph /  16.7km/h 78% 0.00in /  0mm 0.0 W/m2
22:29 2.1 °F /  -16.6 °C -3.2 °F /  -19.6 °C 30.20in /  1022.6hPa WNW 6.9mph /  11.1km/h 6.9mph /  11.1km/h 78% 0.00in /  0mm 0.0 W/m2
22:34 2.1 °F /  -16.6 °C -3.2 °F /  -19.6 °C 30.20in /  1022.6hPa WNW 8.1mph /  13km/h 8.1mph /  13km/h 78% 0.00in /  0mm 0.0 W/m2
22:37 2.0 °F /  -16.7 °C -3.3 °F /  -19.6 °C 30.20in /  1022.6hPa WNW 8.1mph /  13km/h 8.1mph /  13km/h 78% 0.00in /  0mm 0.0 W/m2
22:40 2.1 °F /  -16.6 °C -3.2 °F /  -19.6 °C 30.27in /  1024.9hPa WNW 9.2mph /  14.8km/h 9.2mph /  14.8km/h 78% 0.00in /  0mm 0.0 W/m2
22:42 2.1 °F /  -16.6 °C -2.9 °F /  -19.4 °C 30.27in /  1024.9hPa NW 10.4mph /  16.7km/h 10.4mph /  16.7km/h 79% 0.00in /  0mm 0.0 W/m2
22:43 2.2 °F /  -16.6 °C -2.8 °F /  -19.3 °C 30.20in /  1022.6hPa West 9.0mph /  14.5km/h 9.0mph /  14.5km/h 79% 0.00in /  0mm 0.0 W/m2
22:48 2.4 °F /  -16.4 °C -2.6 °F /  -19.2 °C 30.20in /  1022.6hPa WNW 11.5mph /  18.5km/h 11.5mph /  18.5km/h 79% 0.00in /  0mm 0.0 W/m2
22:49 2.4 °F /  -16.4 °C -2.6 °F /  -19.2 °C 30.20in /  1022.6hPa NW 11.5mph /  18.5km/h 11.5mph /  18.5km/h 79% 0.00in /  0mm 0.0 W/m2
22:50 2.4 °F /  -16.4 °C -2.6 °F /  -19.2 °C 30.27in /  1024.9hPa WNW 9.0mph /  14.5km/h 9.0mph /  14.5km/h 79% 0.00in /  0mm 0.0 W/m2
22:52 2.4 °F /  -16.4 °C -2.9 °F /  -19.4 °C 30.27in /  1024.9hPa WNW 11.5mph /  18.5km/h 11.5mph /  18.5km/h 78% 0.00in /  0mm 0.0 W/m2
22:53 2.4 °F /  -16.4 °C -2.9 °F /  -19.4 °C 30.20in /  1022.6hPa WNW 10.4mph /  16.7km/h 10.4mph /  16.7km/h 78% 0.00in /  0mm 0.0 W/m2
22:54 2.4 °F /  -16.4 °C -2.9 °F /  -19.4 °C 30.20in /  1022.6hPa WNW 11.5mph /  18.5km/h 11.5mph /  18.5km/h 78% 0.00in /  0mm 0.0 W/m2
22:57 2.4 °F /  -16.4 °C -2.9 °F /  -19.4 °C 30.20in /  1022.6hPa WNW 10.4mph /  16.7km/h 10.4mph /  16.7km/h 78% 0.00in /  0mm 0.0 W/m2
23:01 2.4 °F /  -16.4 °C -2.9 °F /  -19.4 °C 30.20in /  1022.6hPa NW 11.5mph /  18.5km/h 11.5mph /  18.5km/h 78% 0.00in /  0mm 0.0 W/m2
23:06 2.4 °F /  -16.4 °C -2.9 °F /  -19.4 °C 30.20in /  1022.6hPa WNW 11.0mph /  17.7km/h 11.0mph /  17.7km/h 78% 0.00in /  0mm 0.0 W/m2
23:07 2.4 °F /  -16.4 °C -2.9 °F /  -19.4 °C 30.20in /  1022.6hPa NW 11.5mph /  18.5km/h 11.5mph /  18.5km/h 78% 0.00in /  0mm 0.0 W/m2
23:13 2.3 °F /  -16.5 °C -3.0 °F /  -19.4 °C 30.20in /  1022.6hPa NW 9.2mph /  14.8km/h 9.2mph /  14.8km/h 78% 0.00in /  0mm 0.0 W/m2
23:16 2.2 °F /  -16.6 °C -3.1 °F /  -19.5 °C 30.20in /  1022.6hPa NW 10.4mph /  16.7km/h 10.4mph /  16.7km/h 78% 0.00in /  0mm 0.0 W/m2
23:19 2.2 °F /  -16.6 °C -3.1 °F /  -19.5 °C 30.20in /  1022.6hPa WNW 12.0mph /  19.3km/h 12.0mph /  19.3km/h 78% 0.00in /  0mm 0.0 W/m2
23:24 2.0 °F /  -16.7 °C -3.3 °F /  -19.6 °C 30.20in /  1022.6hPa WNW 11.5mph /  18.5km/h 11.5mph /  18.5km/h 78% 0.00in /  0mm 0.0 W/m2
23:25 2.0 °F /  -16.7 °C -3.3 °F /  -19.6 °C 30.20in /  1022.6hPa WNW 11.5mph /  18.5km/h 11.5mph /  18.5km/h 78% 0.00in /  0mm 0.0 W/m2
23:31 1.9 °F /  -16.7 °C -3.4 °F /  -19.7 °C 30.20in /  1022.6hPa WNW 10.0mph /  16.1km/h 10.0mph /  16.1km/h 78% 0.00in /  0mm 0.0 W/m2
23:33 1.9 °F /  -16.7 °C -3.4 °F /  -19.7 °C 30.20in /  1022.6hPa WNW 12.7mph /  20.4km/h 12.7mph /  20.4km/h 78% 0.00in /  0mm 0.0 W/m2
23:34 1.9 °F /  -16.7 °C -3.4 °F /  -19.7 °C 30.27in /  1024.9hPa WNW 9.2mph /  14.8km/h 9.2mph /  14.8km/h 78% 0.00in /  0mm 0.0 W/m2
23:39 1.8 °F /  -16.8 °C -3.5 °F /  -19.7 °C 30.20in /  1022.6hPa West 12.7mph /  20.4km/h 12.7mph /  20.4km/h 78% 0.00in /  0mm 0.0 W/m2
23:45 1.8 °F /  -16.8 °C -3.5 °F /  -19.7 °C 30.20in /  1022.6hPa West 11.5mph /  18.5km/h 11.5mph /  18.5km/h 78% 0.00in /  0mm 0.0 W/m2
23:50 1.7 °F /  -16.8 °C -3.6 °F /  -19.8 °C 30.20in /  1022.6hPa NW 11.5mph /  18.5km/h 11.5mph /  18.5km/h 78% 0.00in /  0mm 0.0 W/m2
23:53 1.7 °F /  -16.8 °C -3.6 °F /  -19.8 °C 30.20in /  1022.6hPa West 11.5mph /  18.5km/h 11.5mph /  18.5km/h 78% 0.00in /  0mm 0.0 W/m2
23:58 1.5 °F /  -16.9 °C -3.8 °F /  -19.9 °C 30.20in /  1022.6hPa WNW 11.5mph /  18.5km/h 11.5mph /  18.5km/h 78% 0.00in /  0mm 0.0 W/m2
23:59 1.4 °F /  -17 °C -3.9 °F /  -19.9 °C 30.20in /  1022.6hPa WNW 9.2mph /  14.8km/h 9.2mph /  14.8km/h 78% 0.00in /  0mm 0.0 W/m2
Bourbonnais, Illinois, USA
Compliments of Weather Underground - 4 mb